M I D A S
Marine Information and Data Acquisition System
Tripno 528 of the Zeeleeuw from 2003-07-01 06:19:53 to 2003-07-01 10:12:15
Back to CruiseResearch ActivitiesStationsMapUnderway DataData graphs

EquipmentUnitsComment
TimeDGPSUTC
LatitudeDGPSDM.mWGS84
LongitudeDGPSDM.mWGS84
TemperatureSBE03/SBE38deg celciusITS90
ConductivitySBE21S/mITS90
SalinitySBE21 Practical Salinity Units
ChlorophylAChelsea fluorimeterg/lCalibrated in Aceton
Missing or incorrect values are displayed as -999
Sea surface data collected by the RV Zeeleeuw from 2003-07-01 06:19:53 to 2003-07-01 10:12:15
                                                                                    Next 1000 lines
Time Latitude Longitude Temperature Conductivity Salinity ChlorophylA
2003-07-01 06:20:01 51°13.6 2°56.1 32.99233 0.698344 4.164735 -0.545283
2003-07-01 06:20:07 51°13.6 2°56.1 32.99233 0.698344 4.164735 -0.545283
2003-07-01 06:20:11 51°13.6 2°56.1 31.872511 0.698344 4.164801 -0.578993
2003-07-01 06:20:17 51°13.6 2°56.1 32.407103 0.698344 4.164801 -0.578993
2003-07-01 06:20:21 51°13.6 2°56.1 32.429803 0.698344 4.164801 -0.545283
2003-07-01 06:20:27 51°13.6 2°56.1 32.014507 0.698344 4.164868 -0.545283
2003-07-01 06:20:33 51°13.6 2°56.1 33.548511 0.69824 4.164201 -0.545283
2003-07-01 06:20:37 51°13.6 2°56.1 33.548511 0.69824 4.164201 -0.545283
2003-07-01 06:20:41 51°13.6 2°56.1 32.06628 0.69824 4.164201 -0.578993
2003-07-01 06:20:47 51°13.6 2°56.1 31.864213 0.69824 4.164267 -0.578993
2003-07-01 06:20:53 51°13.6 2°56.1 32.549244 0.69824 4.164267 -0.578993
2003-07-01 06:20:57 51°13.6 2°56.1 33.322685 0.69824 4.164334 -0.545283
2003-07-01 06:21:01 51°13.6 2°56.1 32.85141 0.69824 4.164334 -0.578993
2003-07-01 06:21:07 51°13.6 2°56.1 32.85141 0.69824 4.164334 -0.578993
2003-07-01 06:21:13 51°13.6 2°56.1 32.575007 0.69824 4.164334 -0.545283
2003-07-01 06:21:17 51°13.6 2°56.1 33.312716 0.69824 4.164466 -0.545283
2003-07-01 06:21:21 51°13.6 2°56.1 31.581267 0.69824 4.164466 -0.578993
2003-07-01 06:21:27 51°13.6 2°56.1 32.187588 0.69824 4.164533 -0.545283
2003-07-01 06:21:31 51°13.6 2°56.1 33.800757 0.69824 4.164466 -0.545283
2003-07-01 06:21:37 51°13.6 2°56.1 33.800757 0.69824 4.164466 -0.545283
2003-07-01 06:21:41 51°13.6 2°56.1 31.822158 0.698135 4.163932 -0.545283
2003-07-01 06:21:47 51°13.6 2°56.1 32.603456 0.698135 4.163866 -0.545283
2003-07-01 06:21:53 51°13.6 2°56.1 32.548084 0.698135 4.163932 -0.578993
2003-07-01 06:21:57 51°13.6 2°56.1 32.043678 0.698135 4.163932 -0.545283
2003-07-01 06:22:01 51°13.6 2°56.1 31.936902 0.698031 4.163331 -0.545283
2003-07-01 06:22:07 51°13.6 2°56.1 31.936902 0.698031 4.163331 -0.545283
2003-07-01 06:22:11 51°13.6 2°56.1 32.297407 0.698135 4.164065 -0.578993
2003-07-01 06:22:17 51°13.6 2°56.1 33.223787 0.698031 4.163398 -0.545283
2003-07-01 06:22:21 51°13.6 2°56.1 32.662094 0.698135 4.164131 -0.578993
2003-07-01 06:22:27 51°13.6 2°56.1 32.04598 0.698031 4.16353 -0.545283
2003-07-01 06:22:31 51°13.6 2°56.1 32.975395 0.698031 4.163464 -0.545283
2003-07-01 06:22:37 51°13.6 2°56.1 32.975395 0.698031 4.163464 -0.545283
2003-07-01 06:22:41 51°13.6 2°56.1 32.579681 0.698031 4.16353 -0.578993
2003-07-01 06:22:47 51°13.6 2°56.1 32.552657 0.698031 4.16353 -0.545283
2003-07-01 06:22:53 51°13.6 2°56.1 33.745695 0.698031 4.163597 -0.578993
2003-07-01 06:22:57 51°13.6 2°56.1 31.85185 0.698031 4.163597 -0.578993
2003-07-01 06:23:01 51°13.6 2°56.1 32.167732 0.698031 4.163663 -0.578993
2003-07-01 06:23:07 51°13.6 2°56.09 32.167732 0.698031 4.163663 -0.578993
2003-07-01 06:23:13 51°13.61 2°56.09 33.194685 0.698031 4.16353 -0.578993
2003-07-01 06:23:19 51°13.61 2°56.08 34.304381 0.698031 4.16353 -0.578993
2003-07-01 06:23:23 51°13.61 2°56.08 32.610959 0.698031 4.163597 -0.545283
2003-07-01 06:23:29 51°13.61 2°56.07 33.334173 0.698031 4.163597 -0.545283
2003-07-01 06:23:35 51°13.61 2°56.06 32.862866 0.698031 4.163663 -0.578993
2003-07-01 06:23:39 51°13.61 2°56.06 32.862866 0.698031 4.163663 -0.578993
2003-07-01 06:23:45 51°13.62 2°56.05 33.362918 0.698031 4.163597 -0.545283
2003-07-01 06:23:49 51°13.62 2°56.04 32.836723 0.697927 4.163062 -0.578993
2003-07-01 06:23:55 51°13.62 2°56.03 33.337788 0.697927 4.163062 -0.545283
2003-07-01 06:24:01 51°13.62 2°56.02 32.22396 0.697927 4.163062 -0.545283
2003-07-01 06:24:05 51°13.62 2°56.02 32.112732 0.699076 4.170467 -0.578993
2003-07-01 06:24:11 51°13.63 2°56.01 32.112732 0.699076 4.170467 -0.578993
2003-07-01 06:24:17 51°13.63 2°55.99 32.113384 0.699076 4.170534 -0.545283
2003-07-01 06:24:21 51°13.63 2°55.99 33.175256 0.698867 4.169332 -0.545283
2003-07-01 06:24:27 51°13.63 2°55.98 33.175831 0.698867 4.169332 -0.545283
2003-07-01 06:24:31 51°13.64 2°55.97 31.067215 0.698762 4.168665 -0.545283
2003-07-01 06:24:37 51°13.64 2°55.96 31.237966 0.698658 4.167998 -0.545283
2003-07-01 06:24:41 51°13.64 2°55.95 31.237966 0.698658 4.167998 -0.545283
2003-07-01 06:24:47 51°13.64 2°55.94 33.838259 0.698658 4.167931 -0.545283
2003-07-01 06:24:51 51°13.64 2°55.93 33.341639 0.698553 4.167198 -0.578993
2003-07-01 06:24:57 51°13.65 2°55.92 31.945537 0.698449 4.166663 -0.578993
2003-07-01 06:25:01 51°13.65 2°55.91 32.115341 0.698449 4.166663 -0.545283
2003-07-01 06:25:07 51°13.65 2°55.9 32.061025 0.698449 4.166663 -0.578993
2003-07-01 06:25:11 51°13.65 2°55.9 32.061025 0.698449 4.166663 -0.578993
2003-07-01 06:25:17 51°13.66 2°55.88 31.973015 0.698344 4.165996 -0.545283
2003-07-01 06:25:21 51°13.66 2°55.88 32.931768 0.698344 4.166063 -0.578993
2003-07-01 06:25:27 51°13.66 2°55.87 31.665514 0.698344 4.166063 -0.578993
2003-07-01 06:25:31 51°13.66 2°55.86 32.877922 0.69824 4.165462 -0.545283
2003-07-01 06:25:37 51°13.67 2°55.85 34.721157 0.69824 4.165462 -0.578993
2003-07-01 06:25:41 51°13.67 2°55.84 34.721157 0.69824 4.165462 -0.578993
2003-07-01 06:25:47 51°13.67 2°55.83 32.402282 0.69824 4.165462 -0.545283
2003-07-01 06:25:51 51°13.67 2°55.82 32.345978 0.69824 4.165528 -0.578993
2003-07-01 06:25:57 51°13.68 2°55.81 33.231534 0.69824 4.165528 -0.578993
2003-07-01 06:26:01 51°13.68 2°55.81 33.061999 0.69824 4.165528 -0.578993
2003-07-01 06:26:05 51°13.68 2°55.8 34.338941 0.69824 4.165528 -0.545283
2003-07-01 06:26:09 51°13.68 2°55.8 34.338941 0.69824 4.165528 -0.545283
2003-07-01 06:26:13 51°13.68 2°55.79 33.846013 0.69824 4.165661 -0.545283
2003-07-01 06:26:19 51°13.68 2°55.78 33.294296 0.69824 4.165794 -0.578993
2003-07-01 06:26:23 51°13.68 2°55.78 31.953688 0.69824 4.16586 -0.545283
2003-07-01 06:26:27 51°13.68 2°55.77 32.095363 0.697927 4.163925 -0.545283
2003-07-01 06:26:33 51°13.68 2°55.77 31.610914 0.698971 4.170531 -0.578993
2003-07-01 06:26:37 51°13.68 2°55.77 31.610914 0.698971 4.170531 -0.578993
2003-07-01 06:26:41 51°13.68 2°55.76 32.650575 0.698867 4.169864 -0.578993
2003-07-01 06:26:47 51°13.68 2°55.76 32.712719 0.698867 4.169864 -0.578993
2003-07-01 06:26:53 51°13.68 2°55.76 32.671806 0.698762 4.16933 -0.545283
2003-07-01 06:26:57 51°13.68 2°55.76 32.714184 0.698658 4.168729 -0.578993
2003-07-01 06:27:01 51°13.69 2°55.76 33.32032 0.698658 4.168862 -0.545283
2003-07-01 06:27:07 51°13.69 2°55.75 33.32032 0.698658 4.168862 -0.545283
2003-07-01 06:27:13 51°13.69 2°55.75 32.542282 0.698553 4.168194 -0.578993
2003-07-01 06:27:17 51°13.69 2°55.75 32.598579 0.698553 4.168194 -0.578993
2003-07-01 06:27:21 51°13.69 2°55.75 33.598191 0.698449 4.167593 -0.545283
2003-07-01 06:27:27 51°13.69 2°55.75 31.734253 0.698449 4.167593 -0.545283
2003-07-01 06:27:33 51°13.69 2°55.75 32.856781 0.698449 4.16766 -0.545283
2003-07-01 06:27:37 51°13.69 2°55.76 32.856781 0.698449 4.16766 -0.545283
2003-07-01 06:27:41 51°13.69 2°55.76 33.771097 0.698449 4.16766 -0.578993
2003-07-01 06:27:47 51°13.7 2°55.76 32.242397 0.698449 4.167726 -0.545283
2003-07-01 06:27:53 51°13.7 2°55.76 32.786961 0.698344 4.167125 -0.545283
2003-07-01 06:27:57 51°13.7 2°55.76 32.601819 0.698344 4.167125 -0.545283
2003-07-01 06:28:01 51°13.7 2°55.76 33.408295 0.698344 4.167125 -0.545283
2003-07-01 06:28:07 51°13.71 2°55.76 33.408295 0.698344 4.167125 -0.545283
2003-07-01 06:28:13 51°13.71 2°55.76 32.999117 0.698344 4.167192 -0.578993
2003-07-01 06:28:17 51°13.72 2°55.76 33.049488 0.69824 4.166591 -0.545283
2003-07-01 06:28:21 51°13.72 2°55.76 32.855421 0.69824 4.166657 -0.545283
2003-07-01 06:28:27 51°13.72 2°55.75 32.193211 0.69824 4.166657 -0.578993
2003-07-01 06:28:33 51°13.73 2°55.75 33.494215 0.69824 4.16679 -0.545283
2003-07-01 06:28:37 51°13.73 2°55.74 33.494215 0.69824 4.16679 -0.545283
2003-07-01 06:28:41 51°13.74 2°55.74 31.905075 0.69824 4.16679 -0.545283
2003-07-01 06:28:47 51°13.74 2°55.73 32.243493 0.69824 4.16679 -0.545283
2003-07-01 06:28:53 51°13.75 2°55.72 33.164929 0.698136 4.166189 -0.578993
2003-07-01 06:28:57 51°13.75 2°55.72 32.804312 0.698136 4.166189 -0.545283
2003-07-01 06:29:01 51°13.76 2°55.71 32.888966 0.698136 4.166256 -0.578993
2003-07-01 06:29:07 51°13.76 2°55.7 32.888966 0.698136 4.166256 -0.578993
2003-07-01 06:29:13 51°13.77 2°55.69 32.945215 0.698136 4.166388 -0.545283
2003-07-01 06:29:17 51°13.78 2°55.69 33.279118 0.698136 4.166388 -0.578993
2003-07-01 06:29:21 51°13.78 2°55.68 32.416574 0.698136 4.166521 -0.578993
2003-07-01 06:29:27 51°13.79 2°55.67 33.259134 0.698136 4.166588 -0.578993
2003-07-01 06:29:31 51°13.8 2°55.66 31.403383 0.698031 4.16592 -0.578993
2003-07-01 06:29:37 51°13.81 2°55.65 31.403383 0.698031 4.16592 -0.578993
2003-07-01 06:29:41 51°13.82 2°55.65 32.955265 0.698031 4.165987 -0.545283
2003-07-01 06:29:47 51°13.83 2°55.64 33.283073 0.698031 4.16592 -0.578993
2003-07-01 06:29:53 51°13.84 2°55.63 32.644303 0.698031 4.16592 -0.545283
2003-07-01 06:29:57 51°13.84 2°55.62 32.810026 0.698031 4.165854 -0.578993
2003-07-01 06:30:01 51°13.85 2°55.62 32.561769 0.698031 4.165854 -0.578993
2003-07-01 06:30:07 51°13.86 2°55.61 32.561769 0.698031 4.165854 -0.578993
2003-07-01 06:30:13 51°13.88 2°55.6 32.14221 0.698031 4.165787 -0.545283
2003-07-01 06:30:17 51°13.88 2°55.59 32.255142 0.698031 4.165655 -0.545283
2003-07-01 06:30:21 51°13.89 2°55.59 32.452257 0.698031 4.165655 -0.545283
2003-07-01 06:30:27 51°13.9 2°55.58 32.788186 0.698031 4.165588 -0.545283
2003-07-01 06:30:33 51°13.92 2°55.57 32.032547 0.698031 4.165655 -0.545283
2003-07-01 06:30:37 51°13.92 2°55.56 32.480888 0.698031 4.165655 -0.545283
2003-07-01 06:30:41 51°13.93 2°55.56 32.480888 0.698031 4.165655 -0.545283
2003-07-01 06:30:47 51°13.94 2°55.55 32.174557 0.698031 4.165721 -0.578993
2003-07-01 06:30:51 51°13.95 2°55.54 32.343788 0.697927 4.165186 -0.578993
2003-07-01 06:30:57 51°13.97 2°55.53 31.640378 0.697822 4.164519 -0.545283
2003-07-01 06:31:01 51°13.97 2°55.53 33.209441 0.697927 4.165253 -0.578993
2003-07-01 06:31:07 51°13.99 2°55.52 31.95245 0.697718 4.164051 -0.545283
2003-07-01 06:31:11 51°13.99 2°55.51 31.95245 0.697718 4.164051 -0.545283
2003-07-01 06:31:17 51°14.01 2°55.5 32.290524 0.697822 4.164851 -0.578993
2003-07-01 06:31:21 51°14.02 2°55.5 32.683084 0.697822 4.164918 -0.545283
2003-07-01 06:31:27 51°14.03 2°55.49 32.123406 0.697927 4.165718 -0.545283
2003-07-01 06:31:33 51°14.04 2°55.48 33.21296 0.697822 4.165183 -0.578993
2003-07-01 06:31:37 51°14.05 2°55.47 33.21296 0.697822 4.165183 -0.578993
2003-07-01 06:31:41 51°14.06 2°55.47 32.943959 0.697927 4.165917 -0.545283
2003-07-01 06:31:47 51°14.07 2°55.46 31.589284 0.697822 4.16525 -0.545283
2003-07-01 06:31:51 51°14.08 2°55.45 31.216022 0.697822 4.16525 -0.545283
2003-07-01 06:31:57 51°14.09 2°55.44 31.726906 0.697822 4.16525 -0.578993
2003-07-01 06:32:01 51°14.1 2°55.44 30.445708 0.697822 4.165183 -0.545283
2003-07-01 06:32:07 51°14.11 2°55.43 30.445708 0.697822 4.165183 -0.545283
2003-07-01 06:32:13 51°14.12 2°55.42 31.993747 0.697822 4.165183 -0.545283
2003-07-01 06:32:17 51°14.13 2°55.41 31.451069 0.697822 4.165117 -0.545283
2003-07-01 06:32:21 51°14.14 2°55.4 31.559905 0.697718 4.164449 -0.578993
2003-07-01 06:32:27 51°14.15 2°55.39 32.040449 0.697718 4.164449 -0.578993
2003-07-01 06:32:31 51°14.16 2°55.39 31.759222 0.697822 4.165117 -0.545283
2003-07-01 06:32:37 51°14.17 2°55.37 31.759222 0.697822 4.165117 -0.545283
2003-07-01 06:32:41 51°14.18 2°55.37 31.651911 0.697822 4.165183 -0.578993
2003-07-01 06:32:47 51°14.19 2°55.35 32.22821 0.697822 4.165383 -0.578993
2003-07-01 06:32:53 51°14.2 2°55.34 31.194385 0.697718 4.164848 -0.545283
2003-07-01 06:32:57 51°14.21 2°55.33 32.352309 0.697718 4.164914 -0.578993
2003-07-01 06:33:01 51°14.22 2°55.32 32.18457 0.697822 4.165648 -0.545283
2003-07-01 06:33:07 51°14.23 2°55.31 32.18457 0.697822 4.165648 -0.545283
2003-07-01 06:33:13 51°14.24 2°55.29 31.768048 0.697718 4.164981 -0.578993
2003-07-01 06:33:17 51°14.25 2°55.28 31.110938 0.697822 4.165848 -0.578993
2003-07-01 06:33:21 51°14.25 2°55.27 30.309762 0.697718 4.16518 -0.545283
2003-07-01 06:33:27 51°14.26 2°55.25 30.655015 0.697718 4.16518 -0.578993
2003-07-01 06:33:33 51°14.28 2°55.23 31.770151 0.697718 4.165247 -0.578993
2003-07-01 06:33:37 51°14.28 2°55.22 31.770151 0.697718 4.165247 -0.578993
2003-07-01 06:33:41 51°14.29 2°55.2 31.532728 0.697718 4.165247 -0.545283
2003-07-01 06:33:47 51°14.3 2°55.18 32.524838 0.697718 4.165247 -0.545283
2003-07-01 06:33:53 51°14.31 2°55.16 32.971356 0.697718 4.165247 -0.545283
2003-07-01 06:33:57 51°14.32 2°55.15 32.358194 0.697718 4.165247 -0.578993
2003-07-01 06:34:01 51°14.33 2°55.14 32.139842 0.697718 4.165247 -0.545283
2003-07-01 06:34:07 51°14.34 2°55.12 32.139842 0.697718 4.165247 -0.545283
2003-07-01 06:34:13 51°14.35 2°55.1 32.275524 0.697718 4.165247 -0.545283
2003-07-01 06:34:17 51°14.35 2°55.08 31.515365 0.697822 4.165914 -0.578993
2003-07-01 06:34:21 51°14.36 2°55.07 32.696949 0.697718 4.165247 -0.578993
2003-07-01 06:34:27 51°14.37 2°55.05 31.374868 0.697718 4.16518 -0.578993
2003-07-01 06:34:33 51°14.38 2°55.03 32.194514 0.697718 4.16518 -0.545283
2003-07-01 06:34:37 51°14.39 2°55.02 32.194514 0.697718 4.16518 -0.545283
2003-07-01 06:34:41 51°14.4 2°55 32.27936 0.697613 4.164512 -0.578993
2003-07-01 06:34:47 51°14.41 2°54.98 31.575495 0.697613 4.164512 -0.545283
2003-07-01 06:34:53 51°14.41 2°54.96 31.943438 0.697718 4.16518 -0.545283
2003-07-01 06:34:57 51°14.42 2°54.95 31.718316 0.697613 4.164579 -0.545283
2003-07-01 06:35:01 51°14.42 2°54.93 32.478292 0.697509 4.163978 -0.545283
2003-07-01 06:35:07 51°14.43 2°54.91 32.478292 0.697509 4.163978 -0.545283
2003-07-01 06:35:13 51°14.43 2°54.89 32.591211 0.697613 4.164645 -0.578993
2003-07-01 06:35:17 51°14.43 2°54.87 32.536104 0.697509 4.164111 -0.578993
2003-07-01 06:35:21 51°14.44 2°54.86 32.116302 0.697613 4.164978 -0.545283
2003-07-01 06:35:27 51°14.44 2°54.83 32.593667 0.697613 4.165044 -0.545283
2003-07-01 06:35:33 51°14.44 2°54.81 32.584662 0.697613 4.165111 -0.578993
2003-07-01 06:35:37 51°14.44 2°54.79 32.584662 0.697613 4.165111 -0.578993
2003-07-01 06:35:41 51°14.44 2°54.78 32.78475 0.697509 4.164376 -0.545283
2003-07-01 06:35:47 51°14.45 2°54.75 32.540268 0.697613 4.164978 -0.578993
2003-07-01 06:35:53 51°14.45 2°54.73 32.847942 0.697509 4.16431 -0.545283
2003-07-01 06:35:57 51°14.45 2°54.71 31.669899 0.697509 4.16431 -0.578993
2003-07-01 06:36:01 51°14.45 2°54.7 32.960901 0.697509 4.16431 -0.545283
2003-07-01 06:36:07 51°14.45 2°54.67 32.960901 0.697509 4.16431 -0.545283
2003-07-01 06:36:13 51°14.45 2°54.65 31.727976 0.697613 4.164978 -0.545283
2003-07-01 06:36:17 51°14.45 2°54.63 31.04738 0.697509 4.164376 -0.545283
2003-07-01 06:36:21 51°14.45 2°54.62 32.427308 0.697509 4.16431 -0.545283
2003-07-01 06:36:27 51°14.45 2°54.59 32.12519 0.697509 4.16431 -0.545283
2003-07-01 06:36:33 51°14.45 2°54.57 32.266481 0.697509 4.16431 -0.545283
2003-07-01 06:36:37 51°14.45 2°54.55 32.266481 0.697509 4.16431 -0.545283
2003-07-01 06:36:41 51°14.45 2°54.53 32.603627 0.697509 4.16431 -0.545283
2003-07-01 06:36:47 51°14.45 2°54.51 31.958882 0.697509 4.16431 -0.578993
2003-07-01 06:36:53 51°14.44 2°54.49 31.875369 0.697404 4.163642 -0.578993
2003-07-01 06:36:57 51°14.44 2°54.48 32.214157 0.697509 4.164376 -0.545283
2003-07-01 06:37:01 51°14.44 2°54.46 33.213907 0.697404 4.163775 -0.545283
2003-07-01 06:37:07 51°14.44 2°54.44 33.213907 0.697404 4.163775 -0.545283
2003-07-01 06:37:13 51°14.44 2°54.43 32.047526 0.697509 4.164376 -0.545283
2003-07-01 06:37:17 51°14.43 2°54.42 32.492228 0.697404 4.163842 -0.545283
2003-07-01 06:37:21 51°14.43 2°54.41 32.688842 0.697404 4.163775 -0.578993
2003-07-01 06:37:27 51°14.43 2°54.39 31.598891 0.697509 4.164509 -0.545283
2003-07-01 06:37:33 51°14.43 2°54.38 31.145739 0.697404 4.163974 -0.545283
2003-07-01 06:37:37 51°14.42 2°54.37 31.145739 0.697404 4.163974 -0.545283
2003-07-01 06:37:41 51°14.42 2°54.36 31.575253 0.697613 4.16531 -0.545283
2003-07-01 06:37:47 51°14.42 2°54.35 31.341454 0.697509 4.164642 -0.545283
2003-07-01 06:37:53 51°14.42 2°54.35 32.217139 0.697509 4.164709 -0.545283
2003-07-01 06:37:57 51°14.42 2°54.34 32.10573 0.697509 4.164775 -0.545283
2003-07-01 06:38:01 51°14.41 2°54.34 32.219333 0.697404 4.164107 -0.578993
2003-07-01 06:38:07 51°14.41 2°54.34 32.219333 0.697404 4.164107 -0.578993
2003-07-01 06:38:13 51°14.41 2°54.33 32.834614 0.697404 4.164174 -0.578993
2003-07-01 06:38:17 51°14.41 2°54.33 31.938829 0.697613 4.165576 -0.578993
2003-07-01 06:38:21 51°14.41 2°54.32 32.975531 0.697509 4.164842 -0.545283
2003-07-01 06:38:27 51°14.41 2°54.32 33.143155 0.697404 4.16424 -0.578993
2003-07-01 06:38:33 51°14.41 2°54.32 32.363668 0.697404 4.164373 -0.578993
2003-07-01 06:38:37 51°14.4 2°54.31 32.363668 0.697404 4.164373 -0.578993
2003-07-01 06:38:41 51°14.4 2°54.31 32.196297 0.697404 4.164506 -0.545283
2003-07-01 06:38:47 51°14.4 2°54.31 32.141077 0.697404 4.164506 -0.578993
2003-07-01 06:38:53 51°14.4 2°54.3 33.341233 0.697509 4.165107 -0.545283
2003-07-01 06:38:57 51°14.4 2°54.3 31.63537 0.6973 4.163705 -0.578993
2003-07-01 06:39:01 51°14.4 2°54.3 31.607943 0.697509 4.164974 -0.578993
2003-07-01 06:39:07 51°14.4 2°54.3 31.607943 0.697509 4.164974 -0.578993
2003-07-01 06:39:13 51°14.4 2°54.29 32.728111 0.6973 4.163705 -0.612702
2003-07-01 06:39:17 51°14.4 2°54.29 32.229752 0.697404 4.164373 -0.578993
2003-07-01 06:39:21 51°14.39 2°54.29 32.650575 0.697404 4.164373 -0.578993
2003-07-01 06:39:27 51°14.39 2°54.29 30.757479 0.697195 4.162971 -0.545283
2003-07-01 06:39:33 51°14.39 2°54.28 31.583617 0.697404 4.16424 -0.578993
2003-07-01 06:39:37 51°14.39 2°54.28 31.583617 0.697404 4.16424 -0.578993
2003-07-01 06:39:41 51°14.39 2°54.28 33.18206 0.6973 4.163639 -0.545283
2003-07-01 06:39:47 51°14.39 2°54.28 33.204635 0.697404 4.16424 -0.578993
2003-07-01 06:39:53 51°14.39 2°54.28 30.818173 0.697404 4.164307 -0.578993
2003-07-01 06:39:57 51°14.39 2°54.27 32.264015 0.697404 4.164307 -0.578993
2003-07-01 06:40:01 51°14.39 2°54.27 30.848466 0.697404 4.164307 -0.578993
2003-07-01 06:40:07 51°14.38 2°54.27 30.848466 0.697404 4.164307 -0.578993
2003-07-01 06:40:13 51°14.38 2°54.27 31.928095 0.6973 4.163705 -0.545283
2003-07-01 06:40:17 51°14.38 2°54.27 31.731494 0.697404 4.164373 -0.545283
2003-07-01 06:40:21 51°14.38 2°54.27 31.330741 0.697613 4.165775 -0.578993
2003-07-01 06:40:27 51°14.38 2°54.26 31.450273 0.697404 4.164373 -0.612702
2003-07-01 06:40:33 51°14.38 2°54.26 30.767261 0.697404 4.16444 -0.545283
2003-07-01 06:40:37 51°14.38 2°54.26 30.767261 0.697404 4.16444 -0.545283
2003-07-01 06:40:41 51°14.38 2°54.26 32.040277 0.697509 4.165107 -0.545283
2003-07-01 06:40:47 51°14.38 2°54.26 31.928611 0.697509 4.165174 -0.578993
2003-07-01 06:40:53 51°14.38 2°54.26 31.732046 0.697613 4.165908 -0.578993
2003-07-01 06:40:57 51°14.38 2°54.25 33.021644 0.697195 4.16317 -0.578993
2003-07-01 06:41:01 51°14.37 2°54.25 31.734046 0.697404 4.164639 -0.578993
2003-07-01 06:41:07 51°14.37 2°54.25 31.734046 0.697404 4.164639 -0.578993
2003-07-01 06:41:13 51°14.37 2°54.25 31.707103 0.697613 4.166108 -0.578993
2003-07-01 06:41:17 51°14.37 2°54.25 32.634826 0.697509 4.16544 -0.545283
2003-07-01 06:41:21 51°14.36 2°54.25 31.203277 0.697509 4.165506 -0.578993
2003-07-01 06:41:27 51°14.36 2°54.25 32.720007 0.697509 4.165639 -0.545283
2003-07-01 06:41:33 51°14.35 2°54.24 31.794694 0.697404 4.165038 -0.545283
2003-07-01 06:41:37 51°14.35 2°54.24 31.794694 0.697404 4.165038 -0.545283
2003-07-01 06:41:41 51°14.34 2°54.24 32.419993 0.6973 4.16437 -0.578993
2003-07-01 06:41:47 51°14.34 2°54.23 33.001526 0.697509 4.165706 -0.545283
2003-07-01 06:41:51 51°14.33 2°54.23 32.277887 0.697404 4.165038 -0.578993
2003-07-01 06:41:57 51°14.33 2°54.22 32.450686 0.697404 4.165038 -0.578993
2003-07-01 06:42:01 51°14.32 2°54.21 31.261396 0.697509 4.165706 -0.578993
2003-07-01 06:42:07 51°14.32 2°54.2 31.432511 0.697404 4.165104 -0.578993
2003-07-01 06:42:13 51°14.31 2°54.18 31.432511 0.697404 4.165104 -0.578993
2003-07-01 06:42:17 51°14.31 2°54.17 32.419856 0.697509 4.165573 -0.578993
2003-07-01 06:42:21 51°14.31 2°54.16 31.896711 0.6973 4.164303 -0.578993
2003-07-01 06:42:27 51°14.3 2°54.15 32.000828 0.697509 4.165573 -0.578993
2003-07-01 06:42:33 51°14.3 2°54.13 32.2548 0.697509 4.165706 -0.578993
2003-07-01 06:42:37 51°14.29 2°54.12 32.2548 0.697509 4.165706 -0.578993
2003-07-01 06:42:41 51°14.29 2°54.11 31.946672 0.6973 4.16437 -0.578993
2003-07-01 06:42:47 51°14.28 2°54.09 31.863076 0.697509 4.165772 -0.578993
2003-07-01 06:42:53 51°14.28 2°54.07 31.439817 0.697509 4.165839 -0.578993
2003-07-01 06:42:57 51°14.27 2°54.05 31.973221 0.697404 4.165304 -0.545283
2003-07-01 06:43:01 51°14.27 2°54.04 31.804619 0.6973 4.164702 -0.578993
2003-07-01 06:43:07 51°14.26 2°54.02 31.804619 0.6973 4.164702 -0.578993
2003-07-01 06:43:13 51°14.25 2°54 30.673413 0.697404 4.165503 -0.545283
2003-07-01 06:43:17 51°14.25 2°53.98 30.898522 0.697509 4.166238 -0.578993
2003-07-01 06:43:21 51°14.24 2°53.96 31.046893 0.697509 4.166304 -0.578993
2003-07-01 06:43:27 51°14.24 2°53.94 30.814682 0.697613 4.167172 -0.545283
2003-07-01 06:43:33 51°14.23 2°53.91 30.390193 0.6973 4.165234 -0.578993
2003-07-01 06:43:37 51°14.22 2°53.89 30.390193 0.6973 4.165234 -0.578993
2003-07-01 06:43:41 51°14.21 2°53.87 30.987879 0.697509 4.166703 -0.545283
2003-07-01 06:43:47 51°14.2 2°53.84 30.760169 0.697404 4.166035 -0.545283
2003-07-01 06:43:53 51°14.19 2°53.82 31.699409 0.697404 4.166168 -0.578993
2003-07-01 06:43:57 51°14.19 2°53.8 31.450446 0.697404 4.166168 -0.545283
2003-07-01 06:44:01 51°14.18 2°53.78 32.20809 0.697404 4.166235 -0.545283
2003-07-01 06:44:07 51°14.17 2°53.75 32.20809 0.697404 4.166235 -0.545283
2003-07-01 06:44:13 51°14.16 2°53.72 30.477237 0.697404 4.166235 -0.545283
2003-07-01 06:44:17 51°14.15 2°53.7 31.759463 0.697404 4.166368 -0.578993
2003-07-01 06:44:21 51°14.14 2°53.68 31.222342 0.697404 4.166301 -0.578993
2003-07-01 06:44:27 51°14.13 2°53.65 32.099551 0.697509 4.167036 -0.578993
2003-07-01 06:44:33 51°14.12 2°53.62 32.113041 0.697404 4.166301 -0.578993
2003-07-01 06:44:37 51°14.11 2°53.6 32.113041 0.697404 4.166301 -0.578993
2003-07-01 06:44:41 51°14.11 2°53.58 31.423992 0.697509 4.16697 -0.545283
2003-07-01 06:44:47 51°14.1 2°53.55 31.538572 0.697509 4.16697 -0.578993
2003-07-01 06:44:53 51°14.09 2°53.52 32.552555 0.697613 4.167704 -0.578993
2003-07-01 06:44:57 51°14.08 2°53.5 30.600353 0.697404 4.166368 -0.578993
2003-07-01 06:45:01 51°14.07 2°53.48 31.881049 0.697404 4.166368 -0.545283
2003-07-01 06:45:07 51°14.06 2°53.45 31.881049 0.697404 4.166368 -0.545283
2003-07-01 06:45:13 51°14.05 2°53.42 31.457958 0.697509 4.167036 -0.578993
2003-07-01 06:45:17 51°14.04 2°53.4 31.37414 0.697509 4.167169 -0.578993
2003-07-01 06:45:21 51°14.03 2°53.38 32.142964 0.697509 4.167236 -0.578993
2003-07-01 06:45:27 51°14.02 2°53.35 32.419343 0.697509 4.167236 -0.578993
2003-07-01 06:45:33 51°14.01 2°53.32 30.348267 0.697509 4.167236 -0.578993
2003-07-01 06:45:37 51°14.01 2°53.3 32.281312 0.697404 4.166701 -0.545283
2003-07-01 06:45:41 51°14 2°53.28 32.281312 0.697404 4.166701 -0.545283
2003-07-01 06:45:47 51°13.99 2°53.25 31.945055 0.697404 4.166701 -0.578993
2003-07-01 06:45:53 51°13.98 2°53.22 31.153003 0.697404 4.166701 -0.545283
2003-07-01 06:45:57 51°13.97 2°53.2 31.918977 0.697509 4.167435 -0.578993
2003-07-01 06:46:01 51°13.96 2°53.18 31.722456 0.697509 4.167435 -0.578993
2003-07-01 06:46:07 51°13.95 2°53.15 31.722456 0.697509 4.167435 -0.578993
2003-07-01 06:46:13 51°13.94 2°53.12 31.525604 0.697509 4.167502 -0.545283
2003-07-01 06:46:17 51°13.93 2°53.1 30.4995 0.697509 4.167502 -0.545283
2003-07-01 06:46:21 51°13.93 2°53.08 31.979651 0.697509 4.167635 -0.578993
2003-07-01 06:46:27 51°13.91 2°53.05 31.495335 0.697509 4.167635 -0.578993
2003-07-01 06:46:33 51°13.9 2°53.02 30.383242 0.697509 4.167635 -0.545283
2003-07-01 06:46:37 51°13.9 2°53 30.383242 0.697509 4.167635 -0.545283
2003-07-01 06:46:41 51°13.89 2°52.98 30.961438 0.697613 4.168303 -0.578993
2003-07-01 06:46:47 51°13.88 2°52.95 31.559836 0.697613 4.168437 -0.578993
2003-07-01 06:46:51 51°13.87 2°52.93 31.106313 0.697509 4.167835 -0.545283
2003-07-01 06:46:57 51°13.86 2°52.9 31.703308 0.697613 4.168503 -0.578993
2003-07-01 06:47:01 51°13.85 2°52.88 31.972568 0.697404 4.167167 -0.545283
2003-07-01 06:47:07 51°13.84 2°52.84 31.972568 0.697404 4.167167 -0.545283
2003-07-01 06:47:13 51°13.83 2°52.81 30.790765 0.697509 4.167901 -0.578993
2003-07-01 06:47:17 51°13.82 2°52.79 31.786077 0.697613 4.168636 -0.578993
2003-07-01 06:47:21 51°13.82 2°52.77 30.768693 0.697509 4.167968 -0.578993
2003-07-01 06:47:27 51°13.81 2°52.74 30.855654 0.697509 4.168035 -0.545283
2003-07-01 06:47:33 51°13.79 2°52.71 30.737843 0.697509 4.168035 -0.578993
2003-07-01 06:47:37 51°13.79 2°52.69 30.737843 0.697509 4.168035 -0.578993
2003-07-01 06:47:41 51°13.78 2°52.67 30.657289 0.697509 4.168101 -0.578993
2003-07-01 06:47:47 51°13.77 2°52.64 30.25566 0.697509 4.168168 -0.578993
2003-07-01 06:47:53 51°13.76 2°52.61 30.659143 0.697509 4.168168 -0.545283
2003-07-01 06:47:57 51°13.75 2°52.59 30.655645 0.697509 4.168301 -0.578993
2003-07-01 06:48:01 51°13.74 2°52.57 31.737634 0.697404 4.167633 -0.545283
2003-07-01 06:48:07 51°13.73 2°52.54 31.737634 0.697404 4.167633 -0.545283
2003-07-01 06:48:13 51°13.72 2°52.51 31.568858 0.697509 4.168301 -0.578993
2003-07-01 06:48:17 51°13.72 2°52.49 31.644211 0.697613 4.169036 -0.545283
2003-07-01 06:48:21 51°13.71 2°52.47 30.48716 0.697509 4.168434 -0.578993
2003-07-01 06:48:27 51°13.7 2°52.44 30.315806 0.697509 4.168434 -0.578993
2003-07-01 06:48:33 51°13.69 2°52.41 30.032728 0.697509 4.168434 -0.578993
2003-07-01 06:48:37 51°13.68 2°52.39 30.032728 0.697509 4.168434 -0.578993
2003-07-01 06:48:41 51°13.67 2°52.37 29.565869 0.697509 4.168501 -0.545283
2003-07-01 06:48:47 51°13.66 2°52.34 31.376635 0.697509 4.168501 -0.578993
2003-07-01 06:48:53 51°13.65 2°52.31 30.5213 0.697404 4.167899 -0.545283
2003-07-01 06:48:57 51°13.64 2°52.29 31.474849 0.697404 4.167899 -0.545283
2003-07-01 06:49:01 51°13.64 2°52.27 30.952483 0.697613 4.169236 -0.578993
2003-07-01 06:49:07 51°13.63 2°52.24 30.952483 0.697613 4.169236 -0.578993
2003-07-01 06:49:13 51°13.62 2°52.21 31.635854 0.697404 4.167965 -0.578993
2003-07-01 06:49:17 51°13.61 2°52.19 31.097271 0.697509 4.168767 -0.545283
2003-07-01 06:49:21 51°13.6 2°52.17 30.898522 0.697509 4.168767 -0.545283
2003-07-01 06:49:27 51°13.59 2°52.14 31.667068 0.697509 4.168834 -0.545283
2003-07-01 06:49:33 51°13.58 2°52.11 30.986102 0.697509 4.1689 -0.578993
2003-07-01 06:49:37 51°13.57 2°52.09 30.986102 0.697509 4.1689 -0.578993
2003-07-01 06:49:41 51°13.57 2°52.06 31.499106 0.697404 4.168232 -0.578993
2003-07-01 06:49:47 51°13.56 2°52.03 31.296752 0.697404 4.168298 -0.545283
2003-07-01 06:49:53 51°13.54 2°52 31.614438 0.697509 4.168967 -0.578993
2003-07-01 06:49:57 51°13.54 2°51.98 30.961612 0.697613 4.169635 -0.578993
2003-07-01 06:50:01 51°13.53 2°51.96 30.934117 0.697613 4.169635 -0.545283
2003-07-01 06:50:07 51°13.52 2°51.93 30.934117 0.697613 4.169635 -0.545283
2003-07-01 06:50:13 51°13.51 2°51.9 31.560908 0.697404 4.168365 -0.578993
2003-07-01 06:50:17 51°13.5 2°51.88 31.164436 0.697509 4.169034 -0.612702
2003-07-01 06:50:21 51°13.49 2°51.86 31.359688 0.697509 4.1691 -0.578993
2003-07-01 06:50:27 51°13.48 2°51.83 31.337363 0.697509 4.169167 -0.578993
2003-07-01 06:50:33 51°13.47 2°51.8 30.882131 0.697404 4.168631 -0.578993
2003-07-01 06:50:37 51°13.47 2°51.78 30.882131 0.697404 4.168631 -0.578993
2003-07-01 06:50:41 51°13.46 2°51.76 31.481078 0.697509 4.1693 -0.578993
2003-07-01 06:50:47 51°13.45 2°51.73 30.993939 0.697404 4.168698 -0.545283
2003-07-01 06:50:53 51°13.44 2°51.7 30.794816 0.697509 4.169367 -0.578993
2003-07-01 06:50:57 51°13.43 2°51.68 30.857678 0.697404 4.168765 -0.578993
2003-07-01 06:51:01 51°13.42 2°51.66 31.50862 0.697509 4.169566 -0.578993
2003-07-01 06:51:07 51°13.41 2°51.63 31.50862 0.697509 4.169566 -0.578993
2003-07-01 06:51:13 51°13.4 2°51.6 30.826725 0.697404 4.168898 -0.578993
2003-07-01 06:51:17 51°13.39 2°51.58 31.538987 0.697404 4.168965 -0.578993
2003-07-01 06:51:21 51°13.39 2°51.56 30.42736 0.697509 4.169633 -0.578993
2003-07-01 06:51:27 51°13.38 2°51.53 32.038731 0.697404 4.168965 -0.578993
2003-07-01 06:51:33 51°13.37 2°51.5 31.801725 0.697509 4.1697 -0.545283
2003-07-01 06:51:37 51°13.36 2°51.48 31.801725 0.697509 4.1697 -0.545283
2003-07-01 06:51:41 51°13.35 2°51.46 31.57152 0.697404 4.169098 -0.578993
2003-07-01 06:51:47 51°13.34 2°51.43 31.374036 0.697509 4.169766 -0.578993
2003-07-01 06:51:53 51°13.33 2°51.4 31.233036 0.697509 4.169833 -0.545283
2003-07-01 06:51:57 51°13.32 2°51.38 31.041254 0.697404 4.169164 -0.545283
2003-07-01 06:52:01 51°13.32 2°51.36 31.716936 0.697404 4.169231 -0.578993
2003-07-01 06:52:07 51°13.31 2°51.32 31.716936 0.697404 4.169231 -0.578993
2003-07-01 06:52:13 51°13.29 2°51.29 31.264554 0.697404 4.169231 -0.545283
2003-07-01 06:52:17 51°13.29 2°51.27 30.723515 0.6973 4.168629 -0.578993
2003-07-01 06:52:21 51°13.28 2°51.25 31.748704 0.697404 4.169364 -0.578993
2003-07-01 06:52:27 51°13.27 2°51.22 30.92603 0.6973 4.168696 -0.545283
2003-07-01 06:52:33 51°13.26 2°51.19 31.15488 0.697509 4.1701 -0.578993
2003-07-01 06:52:37 51°13.25 2°51.17 31.15488 0.697509 4.1701 -0.578993
2003-07-01 06:52:41 51°13.25 2°51.15 31.013579 0.697509 4.170166 -0.578993
2003-07-01 06:52:47 51°13.23 2°51.12 31.10753 0.697405 4.169564 -0.578993
2003-07-01 06:52:53 51°13.22 2°51.09 31.782044 0.697405 4.169564 -0.578993
2003-07-01 06:52:57 51°13.22 2°51.07 31.613402 0.697405 4.169564 -0.545283
2003-07-01 06:53:01 51°13.21 2°51.05 31.609601 0.697509 4.170366 -0.545283
2003-07-01 06:53:07 51°13.2 2°51.02 30.961787 0.697405 4.169764 -0.578993
2003-07-01 06:53:11 51°13.19 2°51 30.961787 0.697405 4.169764 -0.578993
2003-07-01 06:53:17 51°13.18 2°50.97 31.190876 0.697405 4.169764 -0.578993
2003-07-01 06:53:21 51°13.17 2°50.95 31.476026 0.697405 4.169764 -0.578993
2003-07-01 06:53:27 51°13.16 2°50.92 30.931677 0.697509 4.1705 -0.578993
2003-07-01 06:53:33 51°13.15 2°50.89 31.95362 0.697405 4.169898 -0.578993
2003-07-01 06:53:37 51°13.14 2°50.87 31.95362 0.697405 4.169898 -0.578993
2003-07-01 06:53:41 51°13.14 2°50.85 30.767086 0.697509 4.170566 -0.578993
2003-07-01 06:53:47 51°13.13 2°50.82 31.44733 0.697509 4.1707 -0.545283
2003-07-01 06:53:51 51°13.12 2°50.8 30.609384 0.697509 4.1707 -0.578993
2003-07-01 06:53:57 51°13.11 2°50.77 30.851677 0.697405 4.170098 -0.545283
2003-07-01 06:54:01 51°13.1 2°50.75 31.280239 0.697405 4.170164 -0.545283
2003-07-01 06:54:07 51°13.09 2°50.71 31.280239 0.697405 4.170164 -0.545283
2003-07-01 06:54:13 51°13.08 2°50.68 30.768169 0.697509 4.1709 -0.578993
2003-07-01 06:54:17 51°13.08 2°50.66 30.859562 0.6973 4.169562 -0.578993
2003-07-01 06:54:21 51°13.07 2°50.64 30.884608 0.697509 4.170966 -0.545283
2003-07-01 06:54:27 51°13.06 2°50.61 32.009764 0.6973 4.169629 -0.545283
2003-07-01 06:54:33 51°13.05 2°50.58 30.647004 0.697405 4.170364 -0.578993
2003-07-01 06:54:37 51°13.04 2°50.56 30.647004 0.697405 4.170364 -0.578993
2003-07-01 06:54:41 51°13.03 2°50.54 32.106279 0.697405 4.170364 -0.578993
2003-07-01 06:54:47 51°13.02 2°50.51 31.117232 0.697405 4.170431 -0.578993
2003-07-01 06:54:53 51°13.01 2°50.48 31.208208 0.6973 4.169829 -0.545283
2003-07-01 06:54:57 51°13 2°50.46 31.351473 0.697509 4.171233 -0.578993
2003-07-01 06:55:01 51°13 2°50.44 31.347937 0.697405 4.170698 -0.545283
2003-07-01 06:55:07 51°12.99 2°50.41 31.347937 0.697405 4.170698 -0.545283
2003-07-01 06:55:13 51°12.98 2°50.38 31.858187 0.697405 4.170698 -0.578993
2003-07-01 06:55:17 51°12.97 2°50.36 31.491494 0.697405 4.170764 -0.545283
2003-07-01 06:55:21 51°12.96 2°50.34 31.042368 0.697405 4.170764 -0.578993
2003-07-01 06:55:27 51°12.95 2°50.31 30.005601 0.697405 4.170898 -0.578993
2003-07-01 06:55:33 51°12.94 2°50.28 31.580057 0.697405 4.170898 -0.578993
2003-07-01 06:55:37 51°12.93 2°50.26 31.580057 0.697405 4.170898 -0.578993
2003-07-01 06:55:41 51°12.92 2°50.24 30.807979 0.697405 4.170964 -0.578993
2003-07-01 06:55:47 51°12.91 2°50.21 31.383704 0.697405 4.171031 -0.578993
2003-07-01 06:55:53 51°12.9 2°50.17 30.986346 0.697405 4.171098 -0.578993
2003-07-01 06:55:57 51°12.9 2°50.15 32.092273 0.697405 4.171031 -0.578993
2003-07-01 06:56:01 51°12.89 2°50.13 30.988471 0.697509 4.171833 -0.545283
2003-07-01 06:56:07 51°12.88 2°50.1 31.075147 0.697509 4.1719 -0.545283
2003-07-01 06:56:13 51°12.87 2°50.07 31.075147 0.697509 4.1719 -0.545283
2003-07-01 06:56:17 51°12.86 2°50.05 31.469346 0.697509 4.1719 -0.545283
2003-07-01 06:56:21 51°12.85 2°50.03 31.75836 0.697509 4.171967 -0.578993
2003-07-01 06:56:27 51°12.84 2°50 31.33452 0.697405 4.171365 -0.545283
2003-07-01 06:56:33 51°12.83 2°49.97 32.603695 0.697405 4.171365 -0.545283
2003-07-01 06:56:37 51°12.82 2°49.95 31.421741 0.697405 4.171498 -0.578993
2003-07-01 06:56:41 51°12.82 2°49.93 31.421741 0.697405 4.171498 -0.578993
2003-07-01 06:56:47 51°12.81 2°49.9 30.791254 0.6973 4.170896 -0.578993
2003-07-01 06:56:53 51°12.8 2°49.87 31.47568 0.697405 4.171698 -0.612702
2003-07-01 06:56:57 51°12.79 2°49.85 31.821434 0.697405 4.171698 -0.578993
2003-07-01 06:57:01 51°12.78 2°49.83 30.22045 0.697509 4.172434 -0.578993
2003-07-01 06:57:07 51°12.77 2°49.8 30.22045 0.697509 4.172434 -0.578993
2003-07-01 06:57:13 51°12.76 2°49.77 31.318881 0.6973 4.171096 -0.578993
2003-07-01 06:57:17 51°12.75 2°49.75 32.493765 0.697509 4.172501 -0.578993
2003-07-01 06:57:21 51°12.75 2°49.73 31.452835 0.6973 4.171229 -0.578993
2003-07-01 06:57:27 51°12.74 2°49.7 31.990825 0.697405 4.171965 -0.578993
2003-07-01 06:57:33 51°12.73 2°49.67 30.890571 0.697405 4.172032 -0.545283
2003-07-01 06:57:37 51°12.72 2°49.65 30.890571 0.697405 4.172032 -0.545283
2003-07-01 06:57:41 51°12.71 2°49.63 31.342668 0.697405 4.172032 -0.578993
2003-07-01 06:57:47 51°12.7 2°49.6 30.945095 0.6973 4.17143 -0.578993
2003-07-01 06:57:53 51°12.69 2°49.56 32.695723 0.697405 4.172165 -0.578993
2003-07-01 06:57:57 51°12.68 2°49.54 31.544174 0.6973 4.171563 -0.578993
2003-07-01 06:58:01 51°12.68 2°49.52 30.604764 0.6973 4.17163 -0.578993
2003-07-01 06:58:07 51°12.67 2°49.49 30.604764 0.6973 4.17163 -0.578993
2003-07-01 06:58:13 51°12.66 2°49.46 30.145649 0.697405 4.172232 -0.578993
2003-07-01 06:58:17 51°12.65 2°49.44 30.950358 0.697405 4.172366 -0.545283
2003-07-01 06:58:21 51°12.65 2°49.42 31.969886 0.697405 4.172366 -0.578993
2003-07-01 06:58:27 51°12.64 2°49.38 31.43632 0.697405 4.172366 -0.545283
2003-07-01 06:58:33 51°12.64 2°49.35 30.35192 0.6973 4.171697 -0.578993
2003-07-01 06:58:37 51°12.64 2°49.33 30.35192 0.6973 4.171697 -0.578993
2003-07-01 06:58:41 51°12.63 2°49.3 32.592917 0.697405 4.172366 -0.578993
2003-07-01 06:58:47 51°12.63 2°49.27 30.727953 0.6973 4.171697 -0.545283
2003-07-01 06:58:53 51°12.62 2°49.23 30.78633 0.697405 4.172366 -0.578993
2003-07-01 06:58:57 51°12.62 2°49.21 30.873341 0.6973 4.171697 -0.578993
2003-07-01 06:59:01 51°12.62 2°49.19 30.185364 0.6973 4.17183 -0.578993
2003-07-01 06:59:07 51°12.61 2°49.15 30.185364 0.6973 4.17183 -0.578993
2003-07-01 06:59:13 51°12.61 2°49.12 31.728217 0.6973 4.171897 -0.578993
2003-07-01 06:59:17 51°12.61 2°49.1 29.985699 0.697405 4.172566 -0.578993
2003-07-01 06:59:21 51°12.6 2°49.07 32.035708 0.6973 4.172097 -0.578993
2003-07-01 06:59:27 51°12.6 2°49.04 31.867794 0.697196 4.171495 -0.578993
2003-07-01 06:59:33 51°12.59 2°49.01 31.95386 0.697405 4.1729 -0.545283
2003-07-01 06:59:37 51°12.59 2°48.98 31.95386 0.697405 4.1729 -0.545283
2003-07-01 06:59:41 51°12.59 2°48.96 31.592878 0.6973 4.172364 -0.545283
2003-07-01 06:59:47 51°12.58 2°48.93 30.563201 0.6973 4.172431 -0.578993
2003-07-01 06:59:53 51°12.58 2°48.89 29.23293 0.697196 4.171828 -0.545283
2003-07-01 06:59:57 51°12.57 2°48.87 30.785108 0.697196 4.171962 -0.578993
2003-07-01 07:00:01 51°12.57 2°48.85 30.85712 0.6973 4.172765 -0.545283
2003-07-01 07:00:07 51°12.56 2°48.81 30.107041 0.6973 4.172831 -0.545283
2003-07-01 07:00:13 51°12.56 2°48.78 30.107041 0.6973 4.172831 -0.545283
2003-07-01 07:00:17 51°12.55 2°48.76 32.045808 0.6973 4.172898 -0.578993
2003-07-01 07:00:21 51°12.55 2°48.73 31.940067 0.6973 4.172898 -0.545283
2003-07-01 07:00:27 51°12.54 2°48.7 31.743773 0.6973 4.172965 -0.578993
2003-07-01 07:00:33 51°12.53 2°48.67 30.949173 0.697196 4.172363 -0.545283
2003-07-01 07:00:37 51°12.53 2°48.65 30.949173 0.697196 4.172363 -0.545283
2003-07-01 07:00:41 51°12.52 2°48.63 29.50484 0.6973 4.173232 -0.578993
2003-07-01 07:00:47 51°12.51 2°48.6 31.060987 0.697196 4.17263 -0.545283
2003-07-01 07:00:53 51°12.5 2°48.56 30.919477 0.697196 4.17263 -0.578993
2003-07-01 07:00:57 51°12.49 2°48.54 31.233696 0.697196 4.172763 -0.578993
2003-07-01 07:01:01 51°12.48 2°48.52 31.518513 0.697196 4.17283 -0.578993
2003-07-01 07:01:07 51°12.47 2°48.49 31.518513 0.697196 4.17283 -0.578993
2003-07-01 07:01:13 51°12.46 2°48.46 30.693416 0.697196 4.17283 -0.578993
2003-07-01 07:01:17 51°12.45 2°48.44 31.435662 0.697091 4.172161 -0.545283
2003-07-01 07:01:21 51°12.45 2°48.42 31.124116 0.6973 4.173499 -0.578993
2003-07-01 07:01:27 51°12.44 2°48.39 32.22821 0.697196 4.17283 -0.578993
2003-07-01 07:01:33 51°12.42 2°48.36 31.211959 0.697091 4.172161 -0.545283
2003-07-01 07:01:37 51°12.42 2°48.34 31.211959 0.697091 4.172161 -0.545283
2003-07-01 07:01:41 51°12.41 2°48.32 31.8081 0.697091 4.172227 -0.578993
2003-07-01 07:01:47 51°12.4 2°48.29 30.527923 0.697196 4.172897 -0.545283
2003-07-01 07:01:53 51°12.39 2°48.26 32.115341 0.697196 4.172897 -0.545283
2003-07-01 07:01:57 51°12.38 2°48.24 31.160544 0.697091 4.172227 -0.545283
2003-07-01 07:02:01 51°12.37 2°48.22 31.304384 0.697091 4.172294 -0.578993
2003-07-01 07:02:07 51°12.36 2°48.19 31.304384 0.697091 4.172294 -0.578993
2003-07-01 07:02:13 51°12.34 2°48.15 30.965166 0.697091 4.172294 -0.578993
2003-07-01 07:02:17 51°12.34 2°48.13 30.566633 0.697196 4.172964 -0.578993
2003-07-01 07:02:21 51°12.33 2°48.11 31.989415 0.697196 4.17303 -0.545283
2003-07-01 07:02:27 51°12.31 2°48.08 30.765584 0.696987 4.171692 -0.545283
2003-07-01 07:02:33 51°12.3 2°48.05 30.480218 0.697196 4.17303 -0.545283
2003-07-01 07:02:37 51°12.29 2°48.02 30.480218 0.697196 4.17303 -0.545283
2003-07-01 07:02:41 51°12.28 2°48 32.105936 0.697196 4.173097 -0.578993
2003-07-01 07:02:47 51°12.27 2°47.97 31.360312 0.696987 4.171825 -0.545283
2003-07-01 07:02:53 51°12.26 2°47.93 30.998222 0.696987 4.171825 -0.578993
2003-07-01 07:02:57 51°12.25 2°47.91 31.312222 0.696882 4.171289 -0.545283
2003-07-01 07:03:01 51°12.24 2°47.89 31.028584 0.696987 4.171959 -0.545283
2003-07-01 07:03:07 51°12.23 2°47.86 30.169558 0.696987 4.172026 -0.578993
2003-07-01 07:03:13 51°12.21 2°47.82 30.169558 0.696987 4.172026 -0.578993
2003-07-01 07:03:17 51°12.21 2°47.8 31.9944 0.696987 4.172092 -0.578993
2003-07-01 07:03:21 51°12.2 2°47.78 31.174444 0.696987 4.172159 -0.545283
2003-07-01 07:03:27 51°12.18 2°47.74 31.686225 0.696987 4.172226 -0.578993
2003-07-01 07:03:33 51°12.17 2°47.71 31.772633 0.697091 4.173029 -0.578993
2003-07-01 07:03:37 51°12.16 2°47.69 30.778822 0.696987 4.172293 -0.578993
2003-07-01 07:03:41 51°12.16 2°47.66 30.778822 0.696987 4.172293 -0.578993
2003-07-01 07:03:47 51°12.14 2°47.63 31.633229 0.696882 4.17169 -0.545283
2003-07-01 07:03:53 51°12.13 2°47.6 31.521038 0.696882 4.171824 -0.578993
2003-07-01 07:03:57 51°12.12 2°47.57 30.495153 0.696882 4.171824 -0.545283
2003-07-01 07:04:01 51°12.11 2°47.55 30.52547 0.696882 4.17189 -0.545283
2003-07-01 07:04:07 51°12.1 2°47.52 30.52547 0.696882 4.17189 -0.545283
2003-07-01 07:04:13 51°12.09 2°47.48 31.807617 0.696778 4.171288 -0.578993
2003-07-01 07:04:17 51°12.08 2°47.46 30.951995 0.696987 4.172694 -0.578993
2003-07-01 07:04:21 51°12.07 2°47.44 31.209632 0.696882 4.172158 -0.545283
2003-07-01 07:04:27 51°12.06 2°47.4 31.381348 0.696882 4.172158 -0.578993
2003-07-01 07:04:33 51°12.05 2°47.37 31.074417 0.696882 4.172225 -0.578993
2003-07-01 07:04:37 51°12.04 2°47.35 31.074417 0.696882 4.172225 -0.578993
2003-07-01 07:04:41 51°12.03 2°47.32 31.676906 0.696882 4.172291 -0.545283
2003-07-01 07:04:47 51°12.02 2°47.29 30.298726 0.696882 4.172291 -0.578993
2003-07-01 07:04:53 51°12.01 2°47.26 31.584066 0.696882 4.172358 -0.578993
2003-07-01 07:04:57 51°12 2°47.23 31.754842 0.696778 4.171755 -0.545283
2003-07-01 07:05:01 51°11.99 2°47.21 31.817369 0.696882 4.172425 -0.545283
2003-07-01 07:05:07 51°11.98 2°47.18 31.817369 0.696882 4.172425 -0.545283
2003-07-01 07:05:13 51°11.96 2°47.14 31.729355 0.696778 4.171822 -0.578993
2003-07-01 07:05:17 51°11.96 2°47.12 31.989759 0.696778 4.171822 -0.578993
2003-07-01 07:05:21 51°11.95 2°47.1 31.675042 0.696882 4.172559 -0.578993
2003-07-01 07:05:27 51°11.93 2°47.06 31.539713 0.696882 4.172625 -0.545283
2003-07-01 07:05:31 51°11.93 2°47.04 31.564365 0.696882 4.172625 -0.578993
2003-07-01 07:05:37 51°11.91 2°47.01 31.564365 0.696882 4.172625 -0.578993
2003-07-01 07:05:41 51°11.91 2°46.98 32.078367 0.696882 4.172759 -0.578993
2003-07-01 07:05:47 51°11.89 2°46.95 32.58456 0.696778 4.172023 -0.578993
2003-07-01 07:05:53 51°11.88 2°46.92 31.596023 0.696778 4.172156 -0.545283
2003-07-01 07:05:57 51°11.87 2°46.89 31.794591 0.696778 4.172223 -0.578993
2003-07-01 07:06:01 51°11.86 2°46.87 31.913988 0.696778 4.172223 -0.578993
2003-07-01 07:06:07 51°11.85 2°46.84 31.913988 0.696778 4.172223 -0.578993
2003-07-01 07:06:13 51°11.84 2°46.8 32.140185 0.696882 4.173026 -0.578993
2003-07-01 07:06:17 51°11.83 2°46.78 32.051682 0.696778 4.172357 -0.545283
2003-07-01 07:06:21 51°11.82 2°46.76 31.20418 0.696778 4.172424 -0.578993
2003-07-01 07:06:27 51°11.81 2°46.72 31.14838 0.696778 4.172424 -0.578993
2003-07-01 07:06:33 51°11.8 2°46.69 30.692542 0.696778 4.17249 -0.545283
2003-07-01 07:06:37 51°11.79 2°46.67 30.692542 0.696778 4.17249 -0.545283
2003-07-01 07:06:41 51°11.78 2°46.64 32.812305 0.696778 4.172557 -0.578993
2003-07-01 07:06:47 51°11.77 2°46.61 31.691195 0.696778 4.172557 -0.578993
2003-07-01 07:06:53 51°11.75 2°46.57 31.833802 0.696778 4.172624 -0.578993
2003-07-01 07:06:57 51°11.75 2°46.55 32.369278 0.696673 4.172021 -0.545283
2003-07-01 07:07:01 51°11.74 2°46.53 31.921111 0.696778 4.172691 -0.545283
2003-07-01 07:07:07 51°11.73 2°46.49 31.69613 0.696673 4.172155 -0.578993
2003-07-01 07:07:13 51°11.71 2°46.46 31.69613 0.696673 4.172155 -0.578993
2003-07-01 07:07:17 51°11.7 2°46.44 31.411835 0.696778 4.172825 -0.578993
2003-07-01 07:07:21 51°11.7 2°46.42 32.261514 0.696778 4.172891 -0.578993
2003-07-01 07:07:27 51°11.68 2°46.38 31.212306 0.696778 4.172891 -0.578993
2003-07-01 07:07:33 51°11.67 2°46.35 32.095432 0.696778 4.172958 -0.578993
2003-07-01 07:07:37 51°11.66 2°46.32 32.095432 0.696778 4.172958 -0.578993
2003-07-01 07:07:41 51°11.65 2°46.3 31.105444 0.696673 4.172355 -0.578993
2003-07-01 07:07:47 51°11.64 2°46.27 31.499625 0.696673 4.172422 -0.545283
2003-07-01 07:07:53 51°11.63 2°46.23 32.323151 0.696778 4.173092 -0.578993
2003-07-01 07:07:57 51°11.62 2°46.21 30.248907 0.696778 4.173226 -0.545283
2003-07-01 07:08:01 51°11.61 2°46.19 30.796038 0.696673 4.172556 -0.578993
2003-07-01 07:08:07 51°11.6 2°46.15 30.796038 0.696673 4.172556 -0.578993
2003-07-01 07:08:13 51°11.59 2°46.12 31.020925 0.696673 4.172623 -0.578993
2003-07-01 07:08:17 51°11.58 2°46.1 30.334673 0.696778 4.173359 -0.578993
2003-07-01 07:08:21 51°11.57 2°46.08 30.770404 0.696778 4.173359 -0.545283
2003-07-01 07:08:27 51°11.56 2°46.04 31.84665 0.696882 4.174096 -0.612702
2003-07-01 07:08:33 51°11.55 2°46.01 31.281314 0.696673 4.17289 -0.545283
2003-07-01 07:08:37 51°11.54 2°45.98 31.281314 0.696673 4.17289 -0.545283
2003-07-01 07:08:41 51°11.53 2°45.96 31.735943 0.696673 4.172957 -0.578993
2003-07-01 07:08:47 51°11.52 2°45.93 31.482705 0.696673 4.172957 -0.545283
2003-07-01 07:08:53 51°11.5 2°45.89 32.441561 0.696569 4.172287 -0.545283
2003-07-01 07:08:57 51°11.5 2°45.87 31.233904 0.696673 4.173024 -0.578993
2003-07-01 07:09:01 51°11.49 2°45.85 31.853572 0.696673 4.173024 -0.578993
2003-07-01 07:09:07 51°11.47 2°45.81 31.853572 0.696673 4.173024 -0.578993
2003-07-01 07:09:13 51°11.46 2°45.78 32.807577 0.696673 4.173158 -0.578993
2003-07-01 07:09:17 51°11.45 2°45.76 31.203693 0.696673 4.173291 -0.578993
2003-07-01 07:09:21 51°11.45 2°45.73 31.545626 0.696778 4.173894 -0.545283
2003-07-01 07:09:27 51°11.43 2°45.7 31.857395 0.696673 4.173358 -0.578993
2003-07-01 07:09:31 51°11.43 2°45.68 32.390929 0.696673 4.173358 -0.578993
2003-07-01 07:09:37 51°11.41 2°45.64 32.390929 0.696673 4.173358 -0.578993
2003-07-01 07:09:41 51°11.4 2°45.62 32.085578 0.696673 4.173425 -0.545283
2003-07-01 07:09:47 51°11.39 2°45.59 32.03052 0.696673 4.173425 -0.578993
2003-07-01 07:09:53 51°11.38 2°45.55 30.840371 0.696778 4.174162 -0.578993
2003-07-01 07:09:57 51°11.37 2°45.53 31.435004 0.696673 4.173626 -0.545283
2003-07-01 07:10:01 51°11.36 2°45.51 31.780666 0.696673 4.173559 -0.578993
2003-07-01 07:10:07 51°11.35 2°45.47 31.780666 0.696673 4.173559 -0.578993
2003-07-01 07:10:13 51°11.34 2°45.44 31.243243 0.696673 4.173626 -0.612702
2003-07-01 07:10:17 51°11.33 2°45.42 31.697787 0.696569 4.173023 -0.578993
2003-07-01 07:10:21 51°11.32 2°45.4 32.570367 0.696673 4.173827 -0.578993
2003-07-01 07:10:27 51°11.31 2°45.36 31.699961 0.696569 4.173157 -0.578993
2003-07-01 07:10:33 51°11.3 2°45.33 31.242271 0.696674 4.17396 -0.578993
2003-07-01 07:10:37 51°11.29 2°45.3 31.503811 0.696569 4.173357 -0.545283
2003-07-01 07:10:41 51°11.28 2°45.28 31.503811 0.696569 4.173357 -0.545283
2003-07-01 07:10:47 51°11.27 2°45.25 32.518522 0.696569 4.173357 -0.545283
2003-07-01 07:10:53 51°11.26 2°45.21 31.845444 0.696569 4.173357 -0.578993
2003-07-01 07:10:57 51°11.25 2°45.19 31.251504 0.696674 4.174161 -0.578993
2003-07-01 07:11:01 51°11.24 2°45.17 32.382071 0.696569 4.173558 -0.545283
2003-07-01 07:11:07 51°11.23 2°45.14 30.251721 0.696569 4.173625 -0.545283
2003-07-01 07:11:13 51°11.21 2°45.1 30.251721 0.696569 4.173625 -0.545283
2003-07-01 07:11:17 51°11.21 2°45.08 30.535141 0.696569 4.173692 -0.578993
2003-07-01 07:11:21 51°11.2 2°45.06 30.334181 0.696674 4.174429 -0.545283
2003-07-01 07:11:27 51°11.19 2°45.04 30.883526 0.696569 4.173892 -0.578993
2003-07-01 07:11:33 51°11.18 2°45.01 30.969869 0.696674 4.174629 -0.545283
2003-07-01 07:11:37 51°11.18 2°44.99 30.942865 0.696674 4.174629 -0.545283
2003-07-01 07:11:41 51°11.17 2°44.98 30.942865 0.696674 4.174629 -0.545283
2003-07-01 07:11:47 51°11.17 2°44.96 31.821365 0.696674 4.174763 -0.612702
2003-07-01 07:11:53 51°11.16 2°44.94 32.108236 0.696778 4.175433 -0.578993
2003-07-01 07:11:57 51°11.16 2°44.93 31.319748 0.696674 4.17483 -0.578993
2003-07-01 07:12:01 51°11.15 2°44.92 32.16804 0.696569 4.174294 -0.578993
2003-07-01 07:12:07 51°11.15 2°44.91 32.16804 0.696569 4.174294 -0.578993
2003-07-01 07:12:13 51°11.14 2°44.9 31.747635 0.696674 4.174964 -0.578993
2003-07-01 07:12:17 51°11.14 2°44.89 32.002134 0.696674 4.175098 -0.578993
2003-07-01 07:12:21 51°11.14 2°44.88 31.638064 0.696674 4.175299 -0.578993
2003-07-01 07:12:27 51°11.13 2°44.87 31.550847 0.696569 4.174829 -0.578993
2003-07-01 07:12:31 51°11.13 2°44.87 31.607701 0.696674 4.175634 -0.578993
2003-07-01 07:12:37 51°11.12 2°44.86 31.607701 0.696674 4.175634 -0.578993
2003-07-01 07:12:41 51°11.12 2°44.86 30.839882 0.696674 4.175835 -0.578993
2003-07-01 07:12:47 51°11.12 2°44.86 31.296128 0.696569 4.175231 -0.578993
2003-07-01 07:12:53 51°11.12 2°44.85 30.778822 0.696569 4.175298 -0.578993
2003-07-01 07:12:57 51°11.11 2°44.85 30.353044 0.696674 4.176035 -0.578993
2003-07-01 07:13:01 51°11.11 2°44.85 31.183268 0.696569 4.175499 -0.578993
2003-07-01 07:13:07 51°11.11 2°44.84 31.183268 0.696569 4.175499 -0.578993
2003-07-01 07:13:13 51°11.11 2°44.84 32.145709 0.696674 4.176236 -0.578993
2003-07-01 07:13:17 51°11.1 2°44.84 31.293908 0.696569 4.175633 -0.578993
2003-07-01 07:13:21 51°11.1 2°44.84 31.832596 0.696465 4.174963 -0.578993
2003-07-01 07:13:27 51°11.1 2°44.84 32.176614 0.696569 4.1757 -0.545283
2003-07-01 07:13:33 51°11.1 2°44.83 31.783285 0.696569 4.1757 -0.612702
2003-07-01 07:13:37 51°11.1 2°44.83 31.783285 0.696569 4.1757 -0.612702
2003-07-01 07:13:41 51°11.09 2°44.83 31.188862 0.696465 4.17503 -0.578993
2003-07-01 07:13:47 51°11.09 2°44.83 31.156791 0.696569 4.1757 -0.578993
2003-07-01 07:13:53 51°11.09 2°44.83 30.504687 0.696674 4.176437 -0.612702
2003-07-01 07:13:57 51°11.09 2°44.83 32.013132 0.696569 4.175767 -0.578993
2003-07-01 07:14:01 51°11.09 2°44.83 32.547231 0.696569 4.175767 -0.578993
2003-07-01 07:14:07 51°11.08 2°44.82 32.547231 0.696569 4.175767 -0.578993
2003-07-01 07:14:13 51°11.08 2°44.82 32.514971 0.69636 4.174426 -0.578993
2003-07-01 07:14:17 51°11.08 2°44.82 31.052809 0.696465 4.17503 -0.612702
2003-07-01 07:14:21 51°11.08 2°44.82 31.701928 0.696465 4.175163 -0.578993
2003-07-01 07:14:27 51°11.08 2°44.82 32.238182 0.69636 4.174426 -0.578993
2003-07-01 07:14:33 51°11.07 2°44.82 31.506198 0.696569 4.1757 -0.612702
2003-07-01 07:14:37 51°11.07 2°44.82 31.738565 0.69636 4.174426 -0.578993
2003-07-01 07:14:41 51°11.07 2°44.82 31.738565 0.69636 4.174426 -0.578993
2003-07-01 07:14:47 51°11.07 2°44.82 31.338195 0.696465 4.175163 -0.545283
2003-07-01 07:14:53 51°11.07 2°44.82 30.826306 0.696465 4.175163 -0.578993
2003-07-01 07:14:57 51°11.07 2°44.81 30.741792 0.69636 4.17456 -0.578993
2003-07-01 07:15:01 51°11.06 2°44.81 31.284714 0.696465 4.17523 -0.545283
2003-07-01 07:15:07 51°11.06 2°44.81 31.936696 0.696256 4.173957 -0.545283
2003-07-01 07:15:13 51°11.06 2°44.81 31.936696 0.696256 4.173957 -0.545283
2003-07-01 07:15:17 51°11.06 2°44.81 31.230293 0.69636 4.174761 -0.578993
2003-07-01 07:15:21 51°11.06 2°44.81 30.803789 0.696256 4.17409 -0.545283
2003-07-01 07:15:27 51°11.06 2°44.81 31.544762 0.696256 4.174157 -0.612702
2003-07-01 07:15:33 51°11.06 2°44.81 30.289342 0.69636 4.174895 -0.545283
2003-07-01 07:15:37 51°11.05 2°44.81 30.289342 0.69636 4.174895 -0.545283
2003-07-01 07:15:41 51°11.05 2°44.81 32.076857 0.696047 4.17295 -0.545283
2003-07-01 07:15:47 51°11.05 2°44.8 32.512684 0.69636 4.175029 -0.578993
2003-07-01 07:15:53 51°11.05 2°44.8 31.15203 0.69636 4.175096 -0.578993
2003-07-01 07:15:57 51°11.05 2°44.8 31.259695 0.696047 4.173151 -0.612702
2003-07-01 07:16:01 51°11.05 2°44.8 29.804116 0.696151 4.173889 -0.545283
2003-07-01 07:16:07 51°11.04 2°44.8 29.804116 0.696151 4.173889 -0.545283
2003-07-01 07:16:13 51°11.04 2°44.8 30.755698 0.696256 4.174693 -0.578993
2003-07-01 07:16:17 51°11.04 2°44.8 31.582234 0.696151 4.173956 -0.578993
2003-07-01 07:16:21 51°11.04 2°44.8 30.729072 0.696256 4.17476 -0.545283
2003-07-01 07:16:27 51°11.03 2°44.81 30.816218 0.696256 4.174961 -0.578993
2003-07-01 07:16:33 51°11.03 2°44.81 32.093578 0.696256 4.175095 -0.612702
2003-07-01 07:16:37 51°11.03 2°44.81 32.093578 0.696256 4.175095 -0.612702
2003-07-01 07:16:41 51°11.03 2°44.81 31.897296 0.696151 4.174559 -0.578993
2003-07-01 07:16:47 51°11.02 2°44.82 32.123886 0.696151 4.174759 -0.545283
2003-07-01 07:16:53 51°11.02 2°44.82 31.532175 0.696047 4.174223 -0.578993
2003-07-01 07:16:57 51°11.02 2°44.82 31.330186 0.696151 4.175028 -0.578993
2003-07-01 07:17:01 51°11.02 2°44.83 30.789718 0.696047 4.174558 -0.545283
2003-07-01 07:17:07 51°11.02 2°44.83 30.789718 0.696047 4.174558 -0.545283
2003-07-01 07:17:13 51°11.02 2°44.84 31.133086 0.696151 4.175229 -0.578993
2003-07-01 07:17:17 51°11.02 2°44.84 32.242054 0.696047 4.174692 -0.578993
2003-07-01 07:17:21 51°11.02 2°44.85 31.674628 0.696151 4.175497 -0.578993
2003-07-01 07:17:27 51°11.02 2°44.85 30.798552 0.696047 4.174893 -0.545283
2003-07-01 07:17:33 51°11.02 2°44.86 31.251573 0.696047 4.174893 -0.578993
2003-07-01 07:17:37 51°11.02 2°44.86 31.251573 0.696047 4.174893 -0.578993
2003-07-01 07:17:41 51°11.02 2°44.86 31.456193 0.696047 4.17496 -0.545283
2003-07-01 07:17:47 51°11.02 2°44.87 31.140038 0.695942 4.174289 -0.545283
2003-07-01 07:17:53 51°11.03 2°44.87 31.906314 0.695942 4.174356 -0.578993
2003-07-01 07:17:57 51°11.03 2°44.88 31.709691 0.695942 4.174423 -0.578993
2003-07-01 07:18:01 51°11.03 2°44.88 31.228661 0.695838 4.173752 -0.545283
2003-07-01 07:18:07 51°11.04 2°44.88 31.372026 0.695942 4.174423 -0.545283
2003-07-01 07:18:13 51°11.04 2°44.88 31.372026 0.695942 4.174423 -0.545283
2003-07-01 07:18:17 51°11.04 2°44.89 31.344852 0.696047 4.175094 -0.578993
2003-07-01 07:18:21 51°11.05 2°44.89 31.202478 0.695838 4.173752 -0.578993
2003-07-01 07:18:27 51°11.05 2°44.89 31.912887 0.695838 4.173752 -0.578993
2003-07-01 07:18:33 51°11.06 2°44.89 31.319748 0.696047 4.175161 -0.578993
2003-07-01 07:18:37 51°11.06 2°44.9 31.943335 0.695838 4.173819 -0.578993
2003-07-01 07:18:41 51°11.06 2°44.9 31.943335 0.695838 4.173819 -0.578993
2003-07-01 07:18:47 51°11.07 2°44.9 31.321968 0.695838 4.173819 -0.545283
2003-07-01 07:18:53 51°11.07 2°44.9 31.465227 0.695838 4.173819 -0.578993
2003-07-01 07:18:57 51°11.08 2°44.91 30.982967 0.695838 4.173752 -0.578993
2003-07-01 07:19:01 51°11.08 2°44.91 29.892047 0.695838 4.173819 -0.612702
2003-07-01 07:19:07 51°11.09 2°44.91 29.892047 0.695838 4.173819 -0.612702
2003-07-01 07:19:13 51°11.09 2°44.92 30.037948 0.695838 4.173752 -0.578993
2003-07-01 07:19:17 51°11.1 2°44.92 29.778747 0.695733 4.173149 -0.545283
2003-07-01 07:19:21 51°11.1 2°44.92 29.924619 0.695942 4.174356 -0.578993
2003-07-01 07:19:27 51°11.11 2°44.92 30.984535 0.695733 4.172948 -0.578993
2003-07-01 07:19:33 51°11.12 2°44.93 32.09526 0.695629 4.172277 -0.578993
2003-07-01 07:19:37 51°11.12 2°44.93 32.09526 0.695629 4.172277 -0.578993
2003-07-01 07:19:41 51°11.12 2°44.93 32.073697 0.695733 4.173082 -0.578993
2003-07-01 07:19:47 51°11.13 2°44.94 31.669761 0.695629 4.172478 -0.578993
2003-07-01 07:19:53 51°11.14 2°44.94 30.90839 0.695838 4.173886 -0.578993
2003-07-01 07:19:57 51°11.14 2°44.94 31.587073 0.695629 4.172612 -0.578993
2003-07-01 07:20:01 51°11.14 2°44.95 30.853875 0.695629 4.172612 -0.578993
2003-07-01 07:20:07 51°11.15 2°44.95 30.853875 0.695629 4.172612 -0.578993
2003-07-01 07:20:13 51°11.15 2°44.96 31.396281 0.695629 4.172612 -0.578993
2003-07-01 07:20:17 51°11.16 2°44.96 30.680163 0.695629 4.172679 -0.578993
2003-07-01 07:20:21 51°11.16 2°44.97 30.853282 0.695629 4.172679 -0.612702
2003-07-01 07:20:27 51°11.16 2°44.97 31.197129 0.695629 4.172746 -0.578993
2003-07-01 07:20:33 51°11.17 2°44.98 30.856422 0.695629 4.172813 -0.578993
2003-07-01 07:20:37 51°11.17 2°44.98 30.856422 0.695629 4.172813 -0.578993
2003-07-01 07:20:41 51°11.17 2°44.98 31.687123 0.695525 4.172142 -0.578993
2003-07-01 07:20:47 51°11.18 2°44.99 31.291549 0.695629 4.17288 -0.612702
2003-07-01 07:20:53 51°11.18 2°44.99 31.543621 0.695734 4.173685 -0.578993
2003-07-01 07:20:57 51°11.18 2°44.99 31.5449 0.695525 4.17241 -0.578993
2003-07-01 07:21:01 51°11.18 2°45 30.462579 0.695525 4.172544 -0.578993
2003-07-01 07:21:07 51°11.19 2°45 30.462579 0.695525 4.172544 -0.578993
2003-07-01 07:21:13 51°11.19 2°45.01 30.57861 0.695525 4.172544 -0.578993
2003-07-01 07:21:17 51°11.19 2°45.01 31.208486 0.695629 4.173416 -0.578993
2003-07-01 07:21:21 51°11.2 2°45.01 30.322728 0.695316 4.17147 -0.578993
2003-07-01 07:21:27 51°11.2 2°45.01 30.869051 0.695525 4.172879 -0.578993
2003-07-01 07:21:33 51°11.2 2°45.02 31.041637 0.69542 4.172275 -0.578993
2003-07-01 07:21:37 51°11.2 2°45.02 30.499114 0.695525 4.173147 -0.578993
2003-07-01 07:21:41 51°11.21 2°45.02 30.499114 0.695525 4.173147 -0.578993
2003-07-01 07:21:47 51°11.21 2°45.02 30.901661 0.69542 4.172476 -0.578993
2003-07-01 07:21:53 51°11.21 2°45.03 31.045431 0.69542 4.17261 -0.545283
2003-07-01 07:21:57 51°11.21 2°45.03 30.875679 0.69542 4.172677 -0.545283
2003-07-01 07:22:01 51°11.21 2°45.03 31.389629 0.69542 4.172744 -0.578993
2003-07-01 07:22:07 51°11.22 2°45.03 30.759261 0.69542 4.172744 -0.578993
2003-07-01 07:22:13 51°11.22 2°45.04 30.759261 0.69542 4.172744 -0.578993
2003-07-01 07:22:17 51°11.22 2°45.04 30.564532 0.695316 4.17214 -0.578993
2003-07-01 07:22:21 51°11.22 2°45.04 30.393001 0.69542 4.172811 -0.578993
2003-07-01 07:22:27 51°11.23 2°45.04 30.61964 0.695316 4.172207 -0.578993
2003-07-01 07:22:33 51°11.23 2°45.04 31.409168 0.695107 4.170865 -0.578993
2003-07-01 07:22:37 51°11.23 2°45.04 30.998571 0.69542 4.172945 -0.612702
2003-07-01 07:22:41 51°11.23 2°45.05 30.998571 0.69542 4.172945 -0.612702
2003-07-01 07:22:47 51°11.23 2°45.05 31.142506 0.695107 4.170999 -0.545283
2003-07-01 07:22:53 51°11.24 2°45.05 31.508205 0.695211 4.17167 -0.578993
2003-07-01 07:22:57 51°11.24 2°45.05 31.651152 0.695211 4.171737 -0.578993
2003-07-01 07:23:01 51°11.24 2°45.05 31.312153 0.695211 4.171804 -0.578993
2003-07-01 07:23:07 51°11.24 2°45.05 30.890467 0.695211 4.171871 -0.545283
2003-07-01 07:23:13 51°11.24 2°45.05 30.890467 0.695211 4.171871 -0.545283
2003-07-01 07:23:17 51°11.24 2°45.05 31.908757 0.695107 4.1712 -0.545283
2003-07-01 07:23:21 51°11.25 2°45.06 30.602278 0.695211 4.171938 -0.545283
2003-07-01 07:23:27 51°11.25 2°45.06 30.431149 0.695002 4.170596 -0.545283
2003-07-01 07:23:33 51°11.25 2°45.06 29.306501 0.695107 4.171334 -0.578993
2003-07-01 07:23:37 51°11.25 2°45.06 29.306501 0.695107 4.171334 -0.578993
2003-07-01 07:23:41 51°11.25 2°45.06 30.260723 0.695107 4.171334 -0.578993
2003-07-01 07:23:47 51°11.25 2°45.06 30.319355 0.695002 4.17073 -0.578993
2003-07-01 07:23:53 51°11.26 2°45.07 31.321309 0.695107 4.171401 -0.545283
2003-07-01 07:23:57 51°11.26 2°45.07 31.18042 0.694898 4.170059 -0.578993
2003-07-01 07:24:01 51°11.26 2°45.07 31.974528 0.695107 4.171334 -0.578993
2003-07-01 07:24:07 51°11.26 2°45.08 31.974528 0.695107 4.171334 -0.578993
2003-07-01 07:24:13 51°11.26 2°45.08 31.325019 0.694898 4.170059 -0.578993
2003-07-01 07:24:17 51°11.26 2°45.08 31.183894 0.695002 4.170596 -0.578993
2003-07-01 07:24:21 51°11.26 2°45.08 32.315175 0.695002 4.170529 -0.578993
2003-07-01 07:24:27 51°11.26 2°45.09 30.929656 0.694793 4.169187 -0.578993
2003-07-01 07:24:33 51°11.26 2°45.09 30.299886 0.695002 4.170529 -0.578993
2003-07-01 07:24:37 51°11.26 2°45.09 30.299886 0.695002 4.170529 -0.578993
2003-07-01 07:24:41 51°11.26 2°45.1 31.868758 0.694898 4.169791 -0.578993
2003-07-01 07:24:47 51°11.26 2°45.1 31.076052 0.694898 4.169791 -0.612702
2003-07-01 07:24:53 51°11.25 2°45.1 31.361802 0.694793 4.16912 -0.578993
2003-07-01 07:24:57 51°11.25 2°45.11 31.561565 0.694898 4.169791 -0.545283
2003-07-01 07:25:01 51°11.25 2°45.11 31.517891 0.694793 4.16912 -0.545283
2003-07-01 07:25:07 51°11.25 2°45.11 30.87683 0.694793 4.16912 -0.545283
2003-07-01 07:25:13 51°11.25 2°45.11 30.87683 0.694793 4.16912 -0.545283
2003-07-01 07:25:17 51°11.24 2°45.12 31.673489 0.694689 4.168516 -0.578993
2003-07-01 07:25:21 51°11.24 2°45.12 31.622798 0.694689 4.168516 -0.578993
2003-07-01 07:25:27 51°11.24 2°45.12 31.421152 0.694689 4.168583 -0.545283
2003-07-01 07:25:33 51°11.24 2°45.12 31.426935 0.694898 4.169992 -0.578993
2003-07-01 07:25:37 51°11.23 2°45.12 31.692645 0.694793 4.169388 -0.545283
2003-07-01 07:25:41 51°11.23 2°45.12 31.692645 0.694793 4.169388 -0.545283
2003-07-01 07:25:47 51°11.23 2°45.13 31.173506 0.694689 4.168783 -0.545283
2003-07-01 07:25:53 51°11.22 2°45.13 31.624318 0.694689 4.16885 -0.578993
2003-07-01 07:25:57 51°11.22 2°45.13 31.710347 0.694689 4.16885 -0.578993
2003-07-01 07:26:01 51°11.22 2°45.13 32.610584 0.694689 4.168917 -0.545283
2003-07-01 07:26:07 51°11.22 2°45.13 31.486304 0.694585 4.168313 -0.578993
2003-07-01 07:26:13 51°11.21 2°45.13 31.486304 0.694585 4.168313 -0.578993
2003-07-01 07:26:17 51°11.21 2°45.13 31.713935 0.694585 4.16838 -0.578993
2003-07-01 07:26:21 51°11.21 2°45.13 31.090871 0.694689 4.169185 -0.578993
2003-07-01 07:26:27 51°11.2 2°45.13 31.829427 0.694585 4.168581 -0.578993
2003-07-01 07:26:33 51°11.2 2°45.12 32.19664 0.694585 4.168648 -0.578993
2003-07-01 07:26:37 51°11.2 2°45.12 32.225914 0.694585 4.168715 -0.612702
2003-07-01 07:26:41 51°11.19 2°45.12 32.225914 0.694585 4.168715 -0.612702
2003-07-01 07:26:47 51°11.19 2°45.12 31.351889 0.69448 4.168111 -0.578993
2003-07-01 07:26:53 51°11.18 2°45.12 31.239355 0.694585 4.168849 -0.545283
2003-07-01 07:26:57 51°11.18 2°45.11 31.439298 0.69448 4.168178 -0.612702
2003-07-01 07:27:01 51°11.18 2°45.11 31.440613 0.694376 4.167641 -0.578993
2003-07-01 07:27:07 51°11.17 2°45.11 31.440613 0.694376 4.167641 -0.578993
2003-07-01 07:27:13 51°11.17 2°45.1 31.243 0.69448 4.168379 -0.578993
2003-07-01 07:27:17 51°11.17 2°45.1 31.613229 0.69448 4.168379 -0.578993
2003-07-01 07:27:21 51°11.16 2°45.1 30.984639 0.694376 4.167708 -0.578993
2003-07-01 07:27:27 51°11.16 2°45.09 31.4171 0.69448 4.168446 -0.578993
2003-07-01 07:27:33 51°11.16 2°45.09 31.701582 0.694376 4.167842 -0.578993
2003-07-01 07:27:37 51°11.15 2°45.09 31.701582 0.694376 4.167842 -0.578993
2003-07-01 07:27:41 51°11.15 2°45.08 31.53297 0.694376 4.167909 -0.578993
2003-07-01 07:27:47 51°11.15 2°45.08 31.812166 0.694271 4.167304 -0.545283
2003-07-01 07:27:53 51°11.14 2°45.07 31.53086 0.694376 4.167976 -0.578993
2003-07-01 07:27:57 51°11.14 2°45.06 31.248345 0.694376 4.167976 -0.578993
2003-07-01 07:28:01 51°11.14 2°45.06 31.334971 0.694376 4.16811 -0.578993
2003-07-01 07:28:07 51°11.14 2°45.05 31.334971 0.694376 4.16811 -0.578993
2003-07-01 07:28:13 51°11.13 2°45.05 31.822261 0.694271 4.167572 -0.545283
2003-07-01 07:28:17 51°11.13 2°45.04 32.15655 0.694271 4.167438 -0.612702
2003-07-01 07:28:21 51°11.13 2°45.03 31.626874 0.694271 4.167572 -0.578993
2003-07-01 07:28:27 51°11.13 2°45.03 31.372997 0.694376 4.168243 -0.578993
2003-07-01 07:28:33 51°11.13 2°45.02 31.649978 0.694271 4.167572 -0.578993
2003-07-01 07:28:37 51°11.13 2°45.01 31.72394 0.694376 4.16831 -0.578993
2003-07-01 07:28:41 51°11.12 2°45.01 31.72394 0.694376 4.16831 -0.578993
2003-07-01 07:28:47 51°11.12 2°45 30.716314 0.694271 4.167706 -0.545283
2003-07-01 07:28:53 51°11.12 2°44.99 30.060093 0.694167 4.167035 -0.578993
2003-07-01 07:28:57 51°11.12 2°44.98 31.260806 0.694271 4.16784 -0.578993
2003-07-01 07:29:01 51°11.12 2°44.98 30.920209 0.694167 4.167102 -0.578993
2003-07-01 07:29:07 51°11.12 2°44.97 31.320338 0.694271 4.167907 -0.545283
2003-07-01 07:29:13 51°11.12 2°44.96 31.320338 0.694271 4.167907 -0.545283
2003-07-01 07:29:17 51°11.12 2°44.95 31.122274 0.694271 4.167974 -0.578993
2003-07-01 07:29:21 51°11.12 2°44.95 31.322696 0.694167 4.167303 -0.578993
2003-07-01 07:29:27 51°11.12 2°44.94 31.550916 0.694167 4.167303 -0.545283
2003-07-01 07:29:33 51°11.12 2°44.93 30.840615 0.694167 4.16737 -0.545283
2003-07-01 07:29:37 51°11.12 2°44.92 30.840615 0.694167 4.16737 -0.545283
2003-07-01 07:29:41 51°11.12 2°44.92 31.949045 0.694167 4.167437 -0.578993
2003-07-01 07:29:47 51°11.12 2°44.91 30.583688 0.694167 4.167571 -0.578993
2003-07-01 07:29:53 51°11.13 2°44.9 30.725821 0.694167 4.167571 -0.578993
2003-07-01 07:29:57 51°11.13 2°44.89 31.557243 0.694167 4.167705 -0.545283
2003-07-01 07:30:01 51°11.13 2°44.89 31.416788 0.694062 4.1671 -0.578993
2003-07-01 07:30:07 51°11.13 2°44.88 31.416788 0.694062 4.1671 -0.578993
2003-07-01 07:30:13 51°11.13 2°44.87 31.019498 0.694167 4.167772 -0.578993
2003-07-01 07:30:17 51°11.13 2°44.86 31.078 0.694062 4.167234 -0.578993
2003-07-01 07:30:21 51°11.13 2°44.86 31.448888 0.694062 4.167234 -0.545283
2003-07-01 07:30:27 51°11.13 2°44.85 31.137397 0.694062 4.167368 -0.545283
2003-07-01 07:30:33 51°11.14 2°44.84 32.164062 0.694062 4.167435 -0.545283
2003-07-01 07:30:37 51°11.14 2°44.83 32.164062 0.694062 4.167435 -0.545283
2003-07-01 07:30:41 51°11.14 2°44.82 31.956784 0.693958 4.166831 -0.578993
2003-07-01 07:30:47 51°11.14 2°44.81 31.778149 0.694062 4.167502 -0.578993
2003-07-01 07:30:53 51°11.14 2°44.8 30.995297 0.694062 4.167636 -0.578993
2003-07-01 07:30:57 51°11.14 2°44.79 31.200533 0.694062 4.167703 -0.545283
2003-07-01 07:31:01 51°11.14 2°44.79 31.054688 0.694062 4.167703 -0.545283
2003-07-01 07:31:07 51°11.14 2°44.77 31.054688 0.694062 4.167703 -0.545283
2003-07-01 07:31:13 51°11.14 2°44.76 31.283569 0.694167 4.168509 -0.578993
2003-07-01 07:31:17 51°11.14 2°44.76 31.483535 0.694062 4.167904 -0.578993
2003-07-01 07:31:21 51°11.14 2°44.75 31.659404 0.693958 4.167233 -0.545283
2003-07-01 07:31:27 51°11.15 2°44.74 31.429256 0.694062 4.167971 -0.578993
2003-07-01 07:31:33 51°11.15 2°44.73 31.854881 0.694062 4.168038 -0.578993
2003-07-01 07:31:37 51°11.15 2°44.72 31.854881 0.694062 4.168038 -0.578993
2003-07-01 07:31:41 51°11.15 2°44.71 31.884113 0.694062 4.168038 -0.545283
2003-07-01 07:31:47 51°11.15 2°44.7 30.605604 0.694062 4.168105 -0.578993
2003-07-01 07:31:53 51°11.15 2°44.69 31.914745 0.693853 4.166762 -0.578993
2003-07-01 07:31:57 51°11.15 2°44.68 32.197359 0.694062 4.168172 -0.578993
2003-07-01 07:32:01 51°11.15 2°44.68 31.601655 0.693853 4.166896 -0.545283
2003-07-01 07:32:07 51°11.15 2°44.66 31.601655 0.693853 4.166896 -0.545283
2003-07-01 07:32:13 51°11.15 2°44.65 31.352548 0.694062 4.16824 -0.545283
2003-07-01 07:32:17 51°11.15 2°44.65 30.955236 0.693853 4.166963 -0.578993
2003-07-01 07:32:21 51°11.15 2°44.64 31.042124 0.693958 4.167635 -0.578993
2003-07-01 07:32:27 51°11.15 2°44.63 31.668035 0.693853 4.167097 -0.545283
2003-07-01 07:32:33 51°11.15 2°44.62 31.381417 0.693958 4.167769 -0.578993
2003-07-01 07:32:37 51°11.15 2°44.61 30.812832 0.693958 4.167769 -0.578993
2003-07-01 07:32:41 51°11.15 2°44.6 30.812832 0.693958 4.167769 -0.578993
2003-07-01 07:32:47 51°11.15 2°44.59 32.291448 0.693853 4.167164 -0.545283
2003-07-01 07:32:53 51°11.15 2°44.58 31.639998 0.693958 4.167836 -0.545283
2003-07-01 07:32:57 51°11.15 2°44.57 31.073373 0.693853 4.167231 -0.578993
2003-07-01 07:33:01 51°11.15 2°44.56 31.646973 0.693958 4.167903 -0.578993
2003-07-01 07:33:07 51°11.14 2°44.55 31.902425 0.693853 4.167298 -0.578993
2003-07-01 07:33:13 51°11.14 2°44.54 31.902425 0.693853 4.167298 -0.578993
2003-07-01 07:33:17 51°11.14 2°44.54 32.011311 0.693853 4.167365 -0.545283
2003-07-01 07:33:21 51°11.14 2°44.53 31.049677 0.693853 4.167433 -0.578993
2003-07-01 07:33:27 51°11.14 2°44.52 31.42981 0.693853 4.167433 -0.545283
2003-07-01 07:33:33 51°11.14 2°44.51 31.794246 0.693853 4.167433 -0.545283
2003-07-01 07:33:37 51°11.14 2°44.5 31.794246 0.693853 4.167433 -0.545283
2003-07-01 07:33:41 51°11.13 2°44.49 31.097027 0.693749 4.166828 -0.578993
2003-07-01 07:33:47 51°11.13 2°44.48 31.395762 0.693853 4.1675 -0.578993
2003-07-01 07:33:53 51°11.13 2°44.47 30.856038 0.693749 4.166895 -0.545283
2003-07-01 07:33:57 51°11.13 2°44.46 31.454946 0.693853 4.1675 -0.578993
2003-07-01 07:34:01 51°11.13 2°44.46 31.489176 0.693853 4.167634 -0.578993
2003-07-01 07:34:07 51°11.13 2°44.45 31.489176 0.693853 4.167634 -0.578993
2003-07-01 07:34:13 51°11.12 2°44.44 31.8534 0.693749 4.166895 -0.578993
2003-07-01 07:34:17 51°11.12 2°44.43 31.600238 0.693749 4.166962 -0.578993
2003-07-01 07:34:21 51°11.12 2°44.42 31.31798 0.693749 4.166962 -0.578993
2003-07-01 07:34:27 51°11.12 2°44.41 30.948999 0.693749 4.167029 -0.545283
2003-07-01 07:34:33 51°11.12 2°44.4 31.348908 0.693749 4.167096 -0.578993
2003-07-01 07:34:37 51°11.11 2°44.39 31.348908 0.693749 4.167096 -0.578993
2003-07-01 07:34:41 51°11.11 2°44.39 31.378576 0.693749 4.167096 -0.545283
2003-07-01 07:34:47 51°11.11 2°44.38 31.123873 0.693644 4.166424 -0.578993
2003-07-01 07:34:53 51°11.11 2°44.37 31.5794 0.693749 4.167163 -0.578993
2003-07-01 07:34:57 51°11.1 2°44.36 31.268684 0.693853 4.167835 -0.545283
2003-07-01 07:35:01 51°11.1 2°44.35 31.355147 0.693749 4.16723 -0.545283
2003-07-01 07:35:07 51°11.1 2°44.34 31.355147 0.693749 4.16723 -0.545283
2003-07-01 07:35:13 51°11.1 2°44.33 31.128914 0.693644 4.166558 -0.578993
2003-07-01 07:35:17 51°11.1 2°44.32 30.816148 0.693749 4.167297 -0.545283
2003-07-01 07:35:21 51°11.09 2°44.32 30.812971 0.69354 4.166021 -0.545283
2003-07-01 07:35:27 51°11.09 2°44.31 30.675512 0.693644 4.166759 -0.578993
2003-07-01 07:35:33 51°11.09 2°44.3 31.588248 0.693644 4.166826 -0.578993
2003-07-01 07:35:37 51°11.09 2°44.29 31.588248 0.693644 4.166826 -0.578993
2003-07-01 07:35:41 51°11.09 2°44.28 30.649348 0.693644 4.166826 -0.578993
2003-07-01 07:35:47 51°11.09 2°44.27 30.617785 0.693749 4.167498 -0.578993
2003-07-01 07:35:53 51°11.08 2°44.27 31.700513 0.69354 4.166222 -0.578993
2003-07-01 07:35:57 51°11.08 2°44.26 31.932258 0.69354 4.166222 -0.545283
2003-07-01 07:36:01 51°11.08 2°44.26 31.412077 0.693749 4.167565 -0.545283
2003-07-01 07:36:07 51°11.08 2°44.25 31.112816 0.69354 4.166289 -0.578993
2003-07-01 07:36:13 51°11.08 2°44.24 31.112816 0.69354 4.166289 -0.578993
2003-07-01 07:36:17 51°11.08 2°44.24 31.393925 0.693645 4.167028 -0.578993
2003-07-01 07:36:21 51°11.08 2°44.23 31.025451 0.693645 4.167095 -0.578993
2003-07-01 07:36:27 51°11.08 2°44.22 31.486165 0.69354 4.16649 -0.578993
2003-07-01 07:36:33 51°11.08 2°44.22 31.680703 0.693645 4.167162 -0.578993
2003-07-01 07:36:37 51°11.08 2°44.22 31.370328 0.693645 4.167229 -0.578993
2003-07-01 07:36:41 51°11.08 2°44.21 31.370328 0.693645 4.167229 -0.578993
2003-07-01 07:36:47 51°11.08 2°44.21 31.115459 0.693645 4.167296 -0.545283
2003-07-01 07:36:53 51°11.08 2°44.2 31.16468 0.69354 4.166691 -0.578993
2003-07-01 07:36:57 51°11.07 2°44.2 31.628704 0.69354 4.166758 -0.578993
2003-07-01 07:37:01 51°11.07 2°44.2 31.545142 0.69354 4.166825 -0.578993
2003-07-01 07:37:07 51°11.07 2°44.19 31.545142 0.69354 4.166825 -0.578993
2003-07-01 07:37:13 51°11.07 2°44.19 31.290716 0.69354 4.166892 -0.612702
2003-07-01 07:37:17 51°11.07 2°44.19 31.830219 0.693436 4.166287 -0.612702
2003-07-01 07:37:21 51°11.07 2°44.18 31.264866 0.69354 4.166959 -0.578993
2003-07-01 07:37:27 51°11.07 2°44.18 30.866958 0.69354 4.167026 -0.578993
2003-07-01 07:37:33 51°11.07 2°44.18 31.720904 0.69354 4.167026 -0.578993
2003-07-01 07:37:37 51°11.07 2°44.17 31.720904 0.69354 4.167026 -0.578993
2003-07-01 07:37:41 51°11.07 2°44.17 31.240257 0.693436 4.166421 -0.545283
2003-07-01 07:37:47 51°11.07 2°44.17 31.582062 0.69354 4.167093 -0.578993
2003-07-01 07:37:53 51°11.07 2°44.16 31.917394 0.69354 4.16716 -0.545283
2003-07-01 07:37:57 51°11.07 2°44.16 31.01619 0.693331 4.165816 -0.578993
2003-07-01 07:38:01 51°11.07 2°44.16 31.240639 0.693436 4.166488 -0.578993
2003-07-01 07:38:07 51°11.07 2°44.16 31.240639 0.693436 4.166488 -0.578993
2003-07-01 07:38:13 51°11.07 2°44.15 31.587038 0.693436 4.166555 -0.545283
2003-07-01 07:38:17 51°11.07 2°44.15 30.672504 0.693436 4.166623 -0.578993
2003-07-01 07:38:21 51°11.07 2°44.15 32.064253 0.693436 4.166623 -0.578993
2003-07-01 07:38:27 51°11.07 2°44.14 31.103322 0.693436 4.166623 -0.545283
2003-07-01 07:38:31 51°11.07 2°44.14 32.094985 0.693331 4.165951 -0.545283
2003-07-01 07:38:37 51°11.07 2°44.14 32.094985 0.693331 4.165951 -0.545283
2003-07-01 07:38:41 51°11.07 2°44.14 32.437972 0.693331 4.166018 -0.578993
2003-07-01 07:38:47 51°11.07 2°44.13 30.821559 0.693436 4.166623 -0.578993
2003-07-01 07:38:53 51°11.07 2°44.13 30.277811 0.693331 4.165951 -0.545283
2003-07-01 07:38:57 51°11.07 2°44.13 30.914108 0.693436 4.166757 -0.578993
2003-07-01 07:39:01 51°11.07 2°44.12 29.789009 0.693331 4.166085 -0.578993
2003-07-01 07:39:07 51°11.07 2°44.12 29.789009 0.693331 4.166085 -0.578993
2003-07-01 07:39:13 51°11.07 2°44.12 30.342893 0.693227 4.16548 -0.545283
2003-07-01 07:39:17 51°11.07 2°44.11 31.48222 0.693331 4.166152 -0.578993
2003-07-01 07:39:21 51°11.07 2°44.11 30.283717 0.693331 4.166152 -0.545283
2003-07-01 07:39:27 51°11.07 2°44.11 30.686947 0.693227 4.165547 -0.578993
2003-07-01 07:39:33 51°11.07 2°44.1 31.372408 0.693331 4.166286 -0.545283
2003-07-01 07:39:37 51°11.07 2°44.1 31.372408 0.693331 4.166286 -0.545283
2003-07-01 07:39:41 51°11.07 2°44.1 31.401928 0.693331 4.166353 -0.545283
2003-07-01 07:39:47 51°11.07 2°44.09 31.322488 0.693227 4.165681 -0.578993
2003-07-01 07:39:53 51°11.07 2°44.09 31.319193 0.693227 4.165815 -0.578993
2003-07-01 07:39:57 51°11.07 2°44.09 32.44843 0.693122 4.165143 -0.578993
2003-07-01 07:40:01 51°11.07 2°44.08 31.60511 0.693227 4.165815 -0.578993
2003-07-01 07:40:07 51°11.07 2°44.08 31.464673 0.693227 4.165882 -0.545283
2003-07-01 07:40:13 51°11.07 2°44.07 31.464673 0.693227 4.165882 -0.545283
2003-07-01 07:40:17 51°11.07 2°44.07 32.823903 0.693331 4.166621 -0.578993
2003-07-01 07:40:21 51°11.07 2°44.07 31.495058 0.693227 4.165949 -0.578993
2003-07-01 07:40:27 51°11.06 2°44.06 32.08908 0.693227 4.166016 -0.578993
2003-07-01 07:40:33 51°11.06 2°44.06 31.780183 0.693331 4.166621 -0.578993
2003-07-01 07:40:37 51°11.06 2°44.05 32.287921 0.693227 4.166083 -0.578993
2003-07-01 07:40:41 51°11.06 2°44.05 32.287921 0.693227 4.166083 -0.578993
2003-07-01 07:40:47 51°11.06 2°44.04 32.428812 0.693331 4.166822 -0.578993
2003-07-01 07:40:53 51°11.06 2°44.03 31.952381 0.693122 4.165411 -0.578993
2003-07-01 07:40:57 51°11.06 2°44.03 31.666343 0.693227 4.166217 -0.545283
2003-07-01 07:41:01 51°11.05 2°44.02 31.355563 0.693227 4.166352 -0.578993
2003-07-01 07:41:07 51°11.05 2°44.02 32.09114 0.693331 4.167091 -0.578993
2003-07-01 07:41:13 51°11.05 2°44.01 32.09114 0.693331 4.167091 -0.578993
2003-07-01 07:41:17 51°11.05 2°44.01 31.839003 0.693122 4.165814 -0.578993
2003-07-01 07:41:21 51°11.04 2°44 31.278469 0.693227 4.166553 -0.545283
2003-07-01 07:41:27 51°11.04 2°44 32.010348 0.693227 4.16662 -0.578993
2003-07-01 07:41:33 51°11.04 2°43.99 31.814474 0.693122 4.166015 -0.578993
2003-07-01 07:41:37 51°11.04 2°43.99 32.769335 0.693227 4.166687 -0.578993
2003-07-01 07:41:41 51°11.03 2°43.99 32.769335 0.693227 4.166687 -0.578993
2003-07-01 07:41:47 51°11.03 2°43.98 32.547026 0.693018 4.165343 -0.578993
2003-07-01 07:41:53 51°11.03 2°43.98 31.930916 0.693122 4.166015 -0.578993
2003-07-01 07:41:57 51°11.03 2°43.98 32.134215 0.693122 4.166015 -0.578993
2003-07-01 07:42:01 51°11.03 2°43.97 31.542549 0.693227 4.166754 -0.578993
2003-07-01 07:42:07 51°11.02 2°43.97 31.542549 0.693227 4.166754 -0.578993
2003-07-01 07:42:13 51°11.02 2°43.97 30.913585 0.693122 4.166082 -0.578993
2003-07-01 07:42:17 51°11.02 2°43.96 32.245378 0.693122 4.166149 -0.578993
2003-07-01 07:42:21 51°11.02 2°43.96 32.16732 0.693018 4.165477 -0.578993
2003-07-01 07:42:27 51°11.02 2°43.96 31.316107 0.693331 4.16756 -0.578993
2003-07-01 07:42:33 51°11.01 2°43.96 31.37421 0.693018 4.16541 -0.578993
2003-07-01 07:42:37 51°11.01 2°43.95 31.37421 0.693018 4.16541 -0.578993
2003-07-01 07:42:41 51°11.01 2°43.95 31.941065 0.693227 4.166888 -0.578993
2003-07-01 07:42:47 51°11.01 2°43.95 31.914194 0.693122 4.166216 -0.578993
2003-07-01 07:42:53 51°11.01 2°43.95 31.321135 0.693122 4.166216 -0.578993
2003-07-01 07:42:57 51°11 2°43.94 31.747394 0.693122 4.166216 -0.578993
2003-07-01 07:43:01 51°11 2°43.94 31.578813 0.693122 4.166283 -0.578993
2003-07-01 07:43:07 51°11 2°43.94 31.578813 0.693122 4.166283 -0.578993
2003-07-01 07:43:13 51°11 2°43.94 31.834525 0.693122 4.166283 -0.545283